<?xml version="1.0" encoding="UTF-8" standalone="no" ?>
<gpx xmlns="http://www.topografix.com/GPX/1/1" xmlns:xsi="http://www.w3.org/2001/XMLSchema-instance" xsi:schemaLocation="http://www.topografix.com/GPX/1/1 http://www.topografix.com/GPX/1/1/gpx.xsd" version="1.1" creator="VisuGPX - https://www.visugpx.com">
  <metadata>
    <name>Marche Nordique Circuit de la Gournerie</name>
    <desc><![CDATA[Marche Nordique Circuit de la Gournerie]]></desc>
  </metadata>
  <trk>
    <name><![CDATA[10/01/12 09:41]]></name>
    <trkseg>
      <trkpt lat="47.25012" lon="-1.63446">
        <ele>61</ele>
        <time>2012-01-10T08:41:10Z</time>
      </trkpt>
      <trkpt lat="47.25007" lon="-1.63443">
        <ele>61</ele>
        <time>2012-01-10T08:41:22Z</time>
      </trkpt>
      <trkpt lat="47.25004" lon="-1.63447">
        <ele>61</ele>
        <time>2012-01-10T08:41:32Z</time>
      </trkpt>
      <trkpt lat="47.25009" lon="-1.63448">
        <ele>61</ele>
        <time>2012-01-10T08:41:39Z</time>
      </trkpt>
      <trkpt lat="47.25015" lon="-1.63451">
        <ele>61</ele>
        <time>2012-01-10T08:41:46Z</time>
      </trkpt>
      <trkpt lat="47.2502" lon="-1.63452">
        <ele>61</ele>
        <time>2012-01-10T08:41:50Z</time>
      </trkpt>
      <trkpt lat="47.25027" lon="-1.63453">
        <ele>61</ele>
        <time>2012-01-10T08:41:54Z</time>
      </trkpt>
      <trkpt lat="47.25032" lon="-1.63456">
        <ele>61</ele>
        <time>2012-01-10T08:41:58Z</time>
      </trkpt>
      <trkpt lat="47.25037" lon="-1.63455">
        <ele>61</ele>
        <time>2012-01-10T08:42:03Z</time>
      </trkpt>
      <trkpt lat="47.25043" lon="-1.63455">
        <ele>61</ele>
        <time>2012-01-10T08:42:07Z</time>
      </trkpt>
      <trkpt lat="47.25047" lon="-1.63457">
        <ele>61</ele>
        <time>2012-01-10T08:42:10Z</time>
      </trkpt>
      <trkpt lat="47.25052" lon="-1.6346">
        <ele>61</ele>
        <time>2012-01-10T08:42:14Z</time>
      </trkpt>
      <trkpt lat="47.25056" lon="-1.63463">
        <ele>61</ele>
        <time>2012-01-10T08:42:17Z</time>
      </trkpt>
      <trkpt lat="47.2506" lon="-1.63466">
        <ele>61</ele>
        <time>2012-01-10T08:42:21Z</time>
      </trkpt>
      <trkpt lat="47.25065" lon="-1.63467">
        <ele>61</ele>
        <time>2012-01-10T08:42:25Z</time>
      </trkpt>
      <trkpt lat="47.2507" lon="-1.63468">
        <ele>61</ele>
        <time>2012-01-10T08:42:27Z</time>
      </trkpt>
      <trkpt lat="47.25074" lon="-1.63469">
        <ele>61</ele>
        <time>2012-01-10T08:42:30Z</time>
      </trkpt>
      <trkpt lat="47.25078" lon="-1.63466">
        <ele>61</ele>
        <time>2012-01-10T08:42:35Z</time>
      </trkpt>
      <trkpt lat="47.25078" lon="-1.63466">
        <ele>61</ele>
        <time>2012-01-10T08:42:35Z</time>
      </trkpt>
      <trkpt lat="47.25078" lon="-1.63466">
        <ele>61</ele>
        <time>2012-01-10T08:42:36Z</time>
      </trkpt>
      <trkpt lat="47.25082" lon="-1.63463">
        <ele>61</ele>
        <time>2012-01-10T08:42:41Z</time>
      </trkpt>
      <trkpt lat="47.25088" lon="-1.63464">
        <ele>60</ele>
        <time>2012-01-10T08:42:47Z</time>
      </trkpt>
      <trkpt lat="47.25094" lon="-1.63464">
        <ele>60</ele>
        <time>2012-01-10T08:42:51Z</time>
      </trkpt>
      <trkpt lat="47.25099" lon="-1.63463">
        <ele>60</ele>
        <time>2012-01-10T08:42:54Z</time>
      </trkpt>
      <trkpt lat="47.25104" lon="-1.63463">
        <ele>60</ele>
        <time>2012-01-10T08:42:57Z</time>
      </trkpt>
      <trkpt lat="47.25109" lon="-1.63461">
        <ele>60</ele>
        <time>2012-01-10T08:43:01Z</time>
      </trkpt>
      <trkpt lat="47.25114" lon="-1.63462">
        <ele>60</ele>
        <time>2012-01-10T08:43:06Z</time>
      </trkpt>
      <trkpt lat="47.25117" lon="-1.63468">
        <ele>60</ele>
        <time>2012-01-10T08:43:11Z</time>
      </trkpt>
      <trkpt lat="47.25119" lon="-1.63474">
        <ele>60</ele>
        <time>2012-01-10T08:43:15Z</time>
      </trkpt>
      <trkpt lat="47.25123" lon="-1.6348">
        <ele>60</ele>
        <time>2012-01-10T08:43:18Z</time>
      </trkpt>
      <trkpt lat="47.25125" lon="-1.63488">
        <ele>60</ele>
        <time>2012-01-10T08:43:21Z</time>
      </trkpt>
      <trkpt lat="47.2513" lon="-1.63493">
        <ele>60</ele>
        <time>2012-01-10T08:43:24Z</time>
      </trkpt>
      <trkpt lat="47.25134" lon="-1.63496">
        <ele>60</ele>
        <time>2012-01-10T08:43:26Z</time>
      </trkpt>
      <trkpt lat="47.25138" lon="-1.635">
        <ele>60</ele>
        <time>2012-01-10T08:43:28Z</time>
      </trkpt>
      <trkpt lat="47.25142" lon="-1.63505">
        <ele>60</ele>
        <time>2012-01-10T08:43:31Z</time>
      </trkpt>
      <trkpt lat="47.25144" lon="-1.63513">
        <ele>60</ele>
        <time>2012-01-10T08:43:35Z</time>
      </trkpt>
      <trkpt lat="47.25148" lon="-1.63518">
        <ele>60</ele>
        <time>2012-01-10T08:43:37Z</time>
      </trkpt>
      <trkpt lat="47.25152" lon="-1.63525">
        <ele>60</ele>
        <time>2012-01-10T08:43:40Z</time>
      </trkpt>
      <trkpt lat="47.25157" lon="-1.63529">
        <ele>60</ele>
        <time>2012-01-10T08:43:43Z</time>
      </trkpt>
      <trkpt lat="47.25163" lon="-1.63528">
        <ele>60</ele>
        <time>2012-01-10T08:43:47Z</time>
      </trkpt>
      <trkpt lat="47.25168" lon="-1.63525">
        <ele>59</ele>
        <time>2012-01-10T08:43:50Z</time>
      </trkpt>
      <trkpt lat="47.25174" lon="-1.63522">
        <ele>59</ele>
        <time>2012-01-10T08:43:54Z</time>
      </trkpt>
      <trkpt lat="47.25178" lon="-1.6352">
        <ele>59</ele>
        <time>2012-01-10T08:43:58Z</time>
      </trkpt>
      <trkpt lat="47.25183" lon="-1.63516">
        <ele>59</ele>
        <time>2012-01-10T08:44:04Z</time>
      </trkpt>
      <trkpt lat="47.25188" lon="-1.63513">
        <ele>59</ele>
        <time>2012-01-10T08:44:08Z</time>
      </trkpt>
      <trkpt lat="47.25193" lon="-1.63511">
        <ele>59</ele>
        <time>2012-01-10T08:44:10Z</time>
      </trkpt>
      <trkpt lat="47.25198" lon="-1.63512">
        <ele>59</ele>
        <time>2012-01-10T08:44:13Z</time>
      </trkpt>
      <trkpt lat="47.25202" lon="-1.63516">
        <ele>59</ele>
        <time>2012-01-10T08:44:16Z</time>
      </trkpt>
      <trkpt lat="47.25207" lon="-1.6352">
        <ele>59</ele>
        <time>2012-01-10T08:44:19Z</time>
      </trkpt>
      <trkpt lat="47.25211" lon="-1.63526">
        <ele>59</ele>
        <time>2012-01-10T08:44:24Z</time>
      </trkpt>
      <trkpt lat="47.25215" lon="-1.63529">
        <ele>59</ele>
        <time>2012-01-10T08:44:27Z</time>
      </trkpt>
      <trkpt lat="47.25221" lon="-1.63534">
        <ele>59</ele>
        <time>2012-01-10T08:44:31Z</time>
      </trkpt>
      <trkpt lat="47.25225" lon="-1.63537">
        <ele>59</ele>
        <time>2012-01-10T08:44:33Z</time>
      </trkpt>
      <trkpt lat="47.2523" lon="-1.63542">
        <ele>59</ele>
        <time>2012-01-10T08:44:37Z</time>
      </trkpt>
      <trkpt lat="47.25234" lon="-1.63547">
        <ele>59</ele>
        <time>2012-01-10T08:44:40Z</time>
      </trkpt>
      <trkpt lat="47.25238" lon="-1.6355">
        <ele>59</ele>
        <time>2012-01-10T08:44:43Z</time>
      </trkpt>
      <trkpt lat="47.25243" lon="-1.63556">
        <ele>59</ele>
        <time>2012-01-10T08:44:46Z</time>
      </trkpt>
      <trkpt lat="47.25248" lon="-1.6356">
        <ele>59</ele>
        <time>2012-01-10T08:44:50Z</time>
      </trkpt>
      <trkpt lat="47.25254" lon="-1.63565">
        <ele>60</ele>
        <time>2012-01-10T08:44:53Z</time>
      </trkpt>
      <trkpt lat="47.25258" lon="-1.6357">
        <ele>60</ele>
        <time>2012-01-10T08:44:56Z</time>
      </trkpt>
      <trkpt lat="47.25262" lon="-1.63574">
        <ele>60</ele>
        <time>2012-01-10T08:45:00Z</time>
      </trkpt>
      <trkpt lat="47.25265" lon="-1.6358">
        <ele>60</ele>
        <time>2012-01-10T08:45:04Z</time>
      </trkpt>
      <trkpt lat="47.25269" lon="-1.63585">
        <ele>61</ele>
        <time>2012-01-10T08:45:07Z</time>
      </trkpt>
      <trkpt lat="47.25273" lon="-1.63588">
        <ele>61</ele>
        <time>2012-01-10T08:45:09Z</time>
      </trkpt>
      <trkpt lat="47.25276" lon="-1.63594">
        <ele>61</ele>
        <time>2012-01-10T08:45:13Z</time>
      </trkpt>
      <trkpt lat="47.2528" lon="-1.63598">
        <ele>62</ele>
        <time>2012-01-10T08:45:15Z</time>
      </trkpt>
      <trkpt lat="47.25284" lon="-1.63602">
        <ele>62</ele>
        <time>2012-01-10T08:45:18Z</time>
      </trkpt>
      <trkpt lat="47.25288" lon="-1.63607">
        <ele>62</ele>
        <time>2012-01-10T08:45:21Z</time>
      </trkpt>
      <trkpt lat="47.25292" lon="-1.63613">
        <ele>62</ele>
        <time>2012-01-10T08:45:25Z</time>
      </trkpt>
      <trkpt lat="47.25296" lon="-1.63616">
        <ele>62</ele>
        <time>2012-01-10T08:45:29Z</time>
      </trkpt>
      <trkpt lat="47.25302" lon="-1.63615">
        <ele>62</ele>
        <time>2012-01-10T08:45:31Z</time>
      </trkpt>
      <trkpt lat="47.25307" lon="-1.63617">
        <ele>63</ele>
        <time>2012-01-10T08:45:34Z</time>
      </trkpt>
      <trkpt lat="47.2531" lon="-1.63622">
        <ele>63</ele>
        <time>2012-01-10T08:45:38Z</time>
      </trkpt>
      <trkpt lat="47.25315" lon="-1.63619">
        <ele>63</ele>
        <time>2012-01-10T08:45:43Z</time>
      </trkpt>
      <trkpt lat="47.25318" lon="-1.63615">
        <ele>63</ele>
        <time>2012-01-10T08:45:54Z</time>
      </trkpt>
      <trkpt lat="47.25318" lon="-1.63615">
        <ele>63</ele>
        <time>2012-01-10T08:45:54Z</time>
      </trkpt>
      <trkpt lat="47.25318" lon="-1.63615">
        <ele>63</ele>
        <time>2012-01-10T08:45:55Z</time>
      </trkpt>
      <trkpt lat="47.25323" lon="-1.63612">
        <ele>63</ele>
        <time>2012-01-10T08:45:57Z</time>
      </trkpt>
      <trkpt lat="47.25328" lon="-1.63608">
        <ele>64</ele>
        <time>2012-01-10T08:46:00Z</time>
      </trkpt>
      <trkpt lat="47.2533" lon="-1.63599">
        <ele>64</ele>
        <time>2012-01-10T08:46:04Z</time>
      </trkpt>
      <trkpt lat="47.25331" lon="-1.63592">
        <ele>65</ele>
        <time>2012-01-10T08:46:07Z</time>
      </trkpt>
      <trkpt lat="47.25333" lon="-1.63584">
        <ele>66</ele>
        <time>2012-01-10T08:46:11Z</time>
      </trkpt>
      <trkpt lat="47.25336" lon="-1.63576">
        <ele>66</ele>
        <time>2012-01-10T08:46:16Z</time>
      </trkpt>
      <trkpt lat="47.25339" lon="-1.63571">
        <ele>66</ele>
        <time>2012-01-10T08:46:19Z</time>
      </trkpt>
      <trkpt lat="47.25342" lon="-1.63566">
        <ele>67</ele>
        <time>2012-01-10T08:46:22Z</time>
      </trkpt>
      <trkpt lat="47.25343" lon="-1.63559">
        <ele>67</ele>
        <time>2012-01-10T08:46:25Z</time>
      </trkpt>
      <trkpt lat="47.25347" lon="-1.63552">
        <ele>67</ele>
        <time>2012-01-10T08:46:29Z</time>
      </trkpt>
      <trkpt lat="47.2535" lon="-1.63546">
        <ele>67</ele>
        <time>2012-01-10T08:46:32Z</time>
      </trkpt>
      <trkpt lat="47.25353" lon="-1.63539">
        <ele>67</ele>
        <time>2012-01-10T08:46:35Z</time>
      </trkpt>
      <trkpt lat="47.25354" lon="-1.63532">
        <ele>67</ele>
        <time>2012-01-10T08:46:38Z</time>
      </trkpt>
      <trkpt lat="47.25355" lon="-1.63524">
        <ele>66</ele>
        <time>2012-01-10T08:46:42Z</time>
      </trkpt>
      <trkpt lat="47.25359" lon="-1.63519">
        <ele>66</ele>
        <time>2012-01-10T08:46:45Z</time>
      </trkpt>
      <trkpt lat="47.25361" lon="-1.63513">
        <ele>66</ele>
        <time>2012-01-10T08:46:48Z</time>
      </trkpt>
      <trkpt lat="47.25363" lon="-1.63505">
        <ele>66</ele>
        <time>2012-01-10T08:46:52Z</time>
      </trkpt>
      <trkpt lat="47.25366" lon="-1.63497">
        <ele>66</ele>
        <time>2012-01-10T08:46:56Z</time>
      </trkpt>
      <trkpt lat="47.25368" lon="-1.63491">
        <ele>66</ele>
        <time>2012-01-10T08:46:59Z</time>
      </trkpt>
      <trkpt lat="47.2537" lon="-1.63483">
        <ele>66</ele>
        <time>2012-01-10T08:47:03Z</time>
      </trkpt>
      <trkpt lat="47.25374" lon="-1.63477">
        <ele>66</ele>
        <time>2012-01-10T08:47:07Z</time>
      </trkpt>
      <trkpt lat="47.25377" lon="-1.63472">
        <ele>66</ele>
        <time>2012-01-10T08:47:11Z</time>
      </trkpt>
      <trkpt lat="47.25381" lon="-1.63466">
        <ele>66</ele>
        <time>2012-01-10T08:47:15Z</time>
      </trkpt>
      <trkpt lat="47.25385" lon="-1.6346">
        <ele>67</ele>
        <time>2012-01-10T08:47:19Z</time>
      </trkpt>
      <trkpt lat="47.25387" lon="-1.63452">
        <ele>67</ele>
        <time>2012-01-10T08:47:22Z</time>
      </trkpt>
      <trkpt lat="47.25391" lon="-1.63446">
        <ele>67</ele>
        <time>2012-01-10T08:47:25Z</time>
      </trkpt>
      <trkpt lat="47.25395" lon="-1.63444">
        <ele>67</ele>
        <time>2012-01-10T08:47:28Z</time>
      </trkpt>
      <trkpt lat="47.25398" lon="-1.63439">
        <ele>67</ele>
        <time>2012-01-10T08:47:31Z</time>
      </trkpt>
      <trkpt lat="47.25403" lon="-1.63436">
        <ele>67</ele>
        <time>2012-01-10T08:47:36Z</time>
      </trkpt>
      <trkpt lat="47.25408" lon="-1.63433">
        <ele>68</ele>
        <time>2012-01-10T08:47:40Z</time>
      </trkpt>
      <trkpt lat="47.25412" lon="-1.63428">
        <ele>68</ele>
        <time>2012-01-10T08:47:45Z</time>
      </trkpt>
      <trkpt lat="47.25417" lon="-1.63425">
        <ele>69</ele>
        <time>2012-01-10T08:47:49Z</time>
      </trkpt>
      <trkpt lat="47.25422" lon="-1.63424">
        <ele>69</ele>
        <time>2012-01-10T08:47:53Z</time>
      </trkpt>
      <trkpt lat="47.25427" lon="-1.63421">
        <ele>69</ele>
        <time>2012-01-10T08:47:55Z</time>
      </trkpt>
      <trkpt lat="47.25432" lon="-1.6342">
        <ele>69</ele>
        <time>2012-01-10T08:47:57Z</time>
      </trkpt>
      <trkpt lat="47.25435" lon="-1.63415">
        <ele>70</ele>
        <time>2012-01-10T08:48:00Z</time>
      </trkpt>
      <trkpt lat="47.25437" lon="-1.63409">
        <ele>70</ele>
        <time>2012-01-10T08:48:03Z</time>
      </trkpt>
      <trkpt lat="47.25438" lon="-1.63403">
        <ele>70</ele>
        <time>2012-01-10T08:48:07Z</time>
      </trkpt>
      <trkpt lat="47.25438" lon="-1.63396">
        <ele>70</ele>
        <time>2012-01-10T08:48:12Z</time>
      </trkpt>
      <trkpt lat="47.25437" lon="-1.63387">
        <ele>71</ele>
        <time>2012-01-10T08:48:16Z</time>
      </trkpt>
      <trkpt lat="47.25436" lon="-1.6338">
        <ele>71</ele>
        <time>2012-01-10T08:48:20Z</time>
      </trkpt>
      <trkpt lat="47.25433" lon="-1.63374">
        <ele>71</ele>
        <time>2012-01-10T08:48:23Z</time>
      </trkpt>
      <trkpt lat="47.2543" lon="-1.63366">
        <ele>71</ele>
        <time>2012-01-10T08:48:27Z</time>
      </trkpt>
      <trkpt lat="47.25429" lon="-1.63359">
        <ele>71</ele>
        <time>2012-01-10T08:48:32Z</time>
      </trkpt>
      <trkpt lat="47.25427" lon="-1.63354">
        <ele>71</ele>
        <time>2012-01-10T08:48:35Z</time>
      </trkpt>
      <trkpt lat="47.2542" lon="-1.63354">
        <ele>71</ele>
        <time>2012-01-10T08:48:38Z</time>
      </trkpt>
      <trkpt lat="47.25414" lon="-1.63358">
        <ele>69</ele>
        <time>2012-01-10T08:48:42Z</time>
      </trkpt>
      <trkpt lat="47.2541" lon="-1.63364">
        <ele>69</ele>
        <time>2012-01-10T08:48:47Z</time>
      </trkpt>
      <trkpt lat="47.25405" lon="-1.63368">
        <ele>69</ele>
        <time>2012-01-10T08:48:50Z</time>
      </trkpt>
      <trkpt lat="47.254" lon="-1.63374">
        <ele>68</ele>
        <time>2012-01-10T08:48:53Z</time>
      </trkpt>
      <trkpt lat="47.25396" lon="-1.63376">
        <ele>68</ele>
        <time>2012-01-10T08:48:56Z</time>
      </trkpt>
      <trkpt lat="47.2539" lon="-1.63376">
        <ele>68</ele>
        <time>2012-01-10T08:48:59Z</time>
      </trkpt>
      <trkpt lat="47.25386" lon="-1.6338">
        <ele>68</ele>
        <time>2012-01-10T08:49:03Z</time>
      </trkpt>
      <trkpt lat="47.25382" lon="-1.63384">
        <ele>68</ele>
        <time>2012-01-10T08:49:07Z</time>
      </trkpt>
      <trkpt lat="47.25377" lon="-1.63385">
        <ele>67</ele>
        <time>2012-01-10T08:49:10Z</time>
      </trkpt>
      <trkpt lat="47.25373" lon="-1.63388">
        <ele>67</ele>
        <time>2012-01-10T08:49:13Z</time>
      </trkpt>
      <trkpt lat="47.25367" lon="-1.6339">
        <ele>67</ele>
        <time>2012-01-10T08:49:17Z</time>
      </trkpt>
      <trkpt lat="47.25362" lon="-1.63392">
        <ele>67</ele>
        <time>2012-01-10T08:49:20Z</time>
      </trkpt>
      <trkpt lat="47.25357" lon="-1.63389">
        <ele>67</ele>
        <time>2012-01-10T08:49:24Z</time>
      </trkpt>
      <trkpt lat="47.25354" lon="-1.63382">
        <ele>67</ele>
        <time>2012-01-10T08:49:30Z</time>
      </trkpt>
      <trkpt lat="47.25351" lon="-1.63376">
        <ele>67</ele>
        <time>2012-01-10T08:49:38Z</time>
      </trkpt>
      <trkpt lat="47.25351" lon="-1.63376">
        <ele>67</ele>
        <time>2012-01-10T08:49:38Z</time>
      </trkpt>
      <trkpt lat="47.25351" lon="-1.63376">
        <ele>67</ele>
        <time>2012-01-10T08:49:39Z</time>
      </trkpt>
      <trkpt lat="47.2535" lon="-1.63368">
        <ele>67</ele>
        <time>2012-01-10T08:49:41Z</time>
      </trkpt>
      <trkpt lat="47.2535" lon="-1.63362">
        <ele>67</ele>
        <time>2012-01-10T08:49:43Z</time>
      </trkpt>
      <trkpt lat="47.25348" lon="-1.63354">
        <ele>67</ele>
        <time>2012-01-10T08:49:45Z</time>
      </trkpt>
      <trkpt lat="47.25349" lon="-1.63347">
        <ele>67</ele>
        <time>2012-01-10T08:49:51Z</time>
      </trkpt>
      <trkpt lat="47.25348" lon="-1.63338">
        <ele>67</ele>
        <time>2012-01-10T08:49:53Z</time>
      </trkpt>
      <trkpt lat="47.25347" lon="-1.6333">
        <ele>67</ele>
        <time>2012-01-10T08:49:56Z</time>
      </trkpt>
      <trkpt lat="47.25345" lon="-1.63323">
        <ele>67</ele>
        <time>2012-01-10T08:50:00Z</time>
      </trkpt>
      <trkpt lat="47.25347" lon="-1.63316">
        <ele>68</ele>
        <time>2012-01-10T08:50:04Z</time>
      </trkpt>
      <trkpt lat="47.25351" lon="-1.6331">
        <ele>68</ele>
        <time>2012-01-10T08:50:09Z</time>
      </trkpt>
      <trkpt lat="47.25355" lon="-1.63306">
        <ele>68</ele>
        <time>2012-01-10T08:50:14Z</time>
      </trkpt>
      <trkpt lat="47.25359" lon="-1.63302">
        <ele>69</ele>
        <time>2012-01-10T08:50:18Z</time>
      </trkpt>
      <trkpt lat="47.25363" lon="-1.63297">
        <ele>69</ele>
        <time>2012-01-10T08:50:22Z</time>
      </trkpt>
      <trkpt lat="47.25367" lon="-1.63292">
        <ele>69</ele>
        <time>2012-01-10T08:50:26Z</time>
      </trkpt>
      <trkpt lat="47.25372" lon="-1.63288">
        <ele>69</ele>
        <time>2012-01-10T08:50:31Z</time>
      </trkpt>
      <trkpt lat="47.25375" lon="-1.63284">
        <ele>69</ele>
        <time>2012-01-10T08:50:36Z</time>
      </trkpt>
      <trkpt lat="47.25381" lon="-1.63277">
        <ele>70</ele>
        <time>2012-01-10T08:50:43Z</time>
      </trkpt>
      <trkpt lat="47.25385" lon="-1.6327">
        <ele>70</ele>
        <time>2012-01-10T08:50:46Z</time>
      </trkpt>
      <trkpt lat="47.25388" lon="-1.63264">
        <ele>70</ele>
        <time>2012-01-10T08:50:49Z</time>
      </trkpt>
      <trkpt lat="47.25384" lon="-1.63259">
        <ele>70</ele>
        <time>2012-01-10T08:50:52Z</time>
      </trkpt>
      <trkpt lat="47.25382" lon="-1.6325">
        <ele>70</ele>
        <time>2012-01-10T08:50:56Z</time>
      </trkpt>
      <trkpt lat="47.25382" lon="-1.63244">
        <ele>70</ele>
        <time>2012-01-10T08:51:01Z</time>
      </trkpt>
      <trkpt lat="47.2538" lon="-1.63234">
        <ele>70</ele>
        <time>2012-01-10T08:51:05Z</time>
      </trkpt>
      <trkpt lat="47.25379" lon="-1.63227">
        <ele>70</ele>
        <time>2012-01-10T08:51:10Z</time>
      </trkpt>
      <trkpt lat="47.25379" lon="-1.63227">
        <ele>70</ele>
        <time>2012-01-10T08:51:10Z</time>
      </trkpt>
      <trkpt lat="47.25379" lon="-1.63227">
        <ele>70</ele>
        <time>2012-01-10T08:51:12Z</time>
      </trkpt>
      <trkpt lat="47.25376" lon="-1.6322">
        <ele>70</ele>
        <time>2012-01-10T08:51:14Z</time>
      </trkpt>
      <trkpt lat="47.25374" lon="-1.63214">
        <ele>69</ele>
        <time>2012-01-10T08:51:17Z</time>
      </trkpt>
      <trkpt lat="47.25372" lon="-1.63206">
        <ele>69</ele>
        <time>2012-01-10T08:51:20Z</time>
      </trkpt>
      <trkpt lat="47.25369" lon="-1.63198">
        <ele>69</ele>
        <time>2012-01-10T08:51:22Z</time>
      </trkpt>
      <trkpt lat="47.25369" lon="-1.63198">
        <ele>69</ele>
        <time>2012-01-10T08:51:22Z</time>
      </trkpt>
      <trkpt lat="47.25369" lon="-1.63198">
        <ele>69</ele>
        <time>2012-01-10T08:51:23Z</time>
      </trkpt>
      <trkpt lat="47.25367" lon="-1.63192">
        <ele>69</ele>
        <time>2012-01-10T08:51:26Z</time>
      </trkpt>
      <trkpt lat="47.25366" lon="-1.63183">
        <ele>69</ele>
        <time>2012-01-10T08:51:33Z</time>
      </trkpt>
      <trkpt lat="47.25362" lon="-1.63177">
        <ele>68</ele>
        <time>2012-01-10T08:51:37Z</time>
      </trkpt>
      <trkpt lat="47.25361" lon="-1.63169">
        <ele>68</ele>
        <time>2012-01-10T08:51:43Z</time>
      </trkpt>
      <trkpt lat="47.25359" lon="-1.63162">
        <ele>67</ele>
        <time>2012-01-10T08:51:46Z</time>
      </trkpt>
      <trkpt lat="47.25355" lon="-1.63155">
        <ele>67</ele>
        <time>2012-01-10T08:51:53Z</time>
      </trkpt>
      <trkpt lat="47.25354" lon="-1.63147">
        <ele>67</ele>
        <time>2012-01-10T08:51:57Z</time>
      </trkpt>
      <trkpt lat="47.25356" lon="-1.6314">
        <ele>67</ele>
        <time>2012-01-10T08:51:59Z</time>
      </trkpt>
      <trkpt lat="47.25358" lon="-1.63131">
        <ele>68</ele>
        <time>2012-01-10T08:52:02Z</time>
      </trkpt>
      <trkpt lat="47.25362" lon="-1.63124">
        <ele>68</ele>
        <time>2012-01-10T08:52:05Z</time>
      </trkpt>
      <trkpt lat="47.25367" lon="-1.63118">
        <ele>68</ele>
        <time>2012-01-10T08:52:09Z</time>
      </trkpt>
      <trkpt lat="47.2537" lon="-1.63112">
        <ele>68</ele>
        <time>2012-01-10T08:52:13Z</time>
      </trkpt>
      <trkpt lat="47.25374" lon="-1.63105">
        <ele>68</ele>
        <time>2012-01-10T08:52:17Z</time>
      </trkpt>
      <trkpt lat="47.25379" lon="-1.63101">
        <ele>68</ele>
        <time>2012-01-10T08:52:21Z</time>
      </trkpt>
      <trkpt lat="47.25382" lon="-1.63095">
        <ele>68</ele>
        <time>2012-01-10T08:52:25Z</time>
      </trkpt>
      <trkpt lat="47.25387" lon="-1.63091">
        <ele>68</ele>
        <time>2012-01-10T08:52:30Z</time>
      </trkpt>
      <trkpt lat="47.25392" lon="-1.63089">
        <ele>69</ele>
        <time>2012-01-10T08:52:33Z</time>
      </trkpt>
      <trkpt lat="47.25397" lon="-1.63087">
        <ele>69</ele>
        <time>2012-01-10T08:52:35Z</time>
      </trkpt>
      <trkpt lat="47.25401" lon="-1.63084">
        <ele>69</ele>
        <time>2012-01-10T08:52:39Z</time>
      </trkpt>
      <trkpt lat="47.25406" lon="-1.63083">
        <ele>68</ele>
        <time>2012-01-10T08:52:43Z</time>
      </trkpt>
      <trkpt lat="47.25411" lon="-1.63085">
        <ele>70</ele>
        <time>2012-01-10T08:52:46Z</time>
      </trkpt>
      <trkpt lat="47.25416" lon="-1.63087">
        <ele>70</ele>
        <time>2012-01-10T08:52:49Z</time>
      </trkpt>
      <trkpt lat="47.25419" lon="-1.63093">
        <ele>70</ele>
        <time>2012-01-10T08:52:52Z</time>
      </trkpt>
      <trkpt lat="47.25422" lon="-1.63099">
        <ele>71</ele>
        <time>2012-01-10T08:52:55Z</time>
      </trkpt>
      <trkpt lat="47.25424" lon="-1.63108">
        <ele>71</ele>
        <time>2012-01-10T08:52:58Z</time>
      </trkpt>
      <trkpt lat="47.25426" lon="-1.63116">
        <ele>71</ele>
        <time>2012-01-10T08:53:01Z</time>
      </trkpt>
      <trkpt lat="47.25426" lon="-1.63126">
        <ele>72</ele>
        <time>2012-01-10T08:53:04Z</time>
      </trkpt>
      <trkpt lat="47.25427" lon="-1.63133">
        <ele>72</ele>
        <time>2012-01-10T08:53:07Z</time>
      </trkpt>
      <trkpt lat="47.25431" lon="-1.63139">
        <ele>72</ele>
        <time>2012-01-10T08:53:11Z</time>
      </trkpt>
      <trkpt lat="47.25434" lon="-1.63144">
        <ele>72</ele>
        <time>2012-01-10T08:53:15Z</time>
      </trkpt>
      <trkpt lat="47.25437" lon="-1.6315">
        <ele>72</ele>
        <time>2012-01-10T08:53:19Z</time>
      </trkpt>
      <trkpt lat="47.25439" lon="-1.63156">
        <ele>72</ele>
        <time>2012-01-10T08:53:23Z</time>
      </trkpt>
      <trkpt lat="47.25442" lon="-1.63162">
        <ele>72</ele>
        <time>2012-01-10T08:53:27Z</time>
      </trkpt>
      <trkpt lat="47.25444" lon="-1.63168">
        <ele>74</ele>
        <time>2012-01-10T08:53:30Z</time>
      </trkpt>
      <trkpt lat="47.25445" lon="-1.63177">
        <ele>74</ele>
        <time>2012-01-10T08:53:34Z</time>
      </trkpt>
      <trkpt lat="47.25447" lon="-1.63183">
        <ele>74</ele>
        <time>2012-01-10T08:53:38Z</time>
      </trkpt>
      <trkpt lat="47.25448" lon="-1.63191">
        <ele>74</ele>
        <time>2012-01-10T08:53:41Z</time>
      </trkpt>
      <trkpt lat="47.2545" lon="-1.63198">
        <ele>74</ele>
        <time>2012-01-10T08:53:45Z</time>
      </trkpt>
      <trkpt lat="47.25452" lon="-1.63206">
        <ele>74</ele>
        <time>2012-01-10T08:53:48Z</time>
      </trkpt>
      <trkpt lat="47.25452" lon="-1.63214">
        <ele>74</ele>
        <time>2012-01-10T08:53:50Z</time>
      </trkpt>
      <trkpt lat="47.25456" lon="-1.6322">
        <ele>74</ele>
        <time>2012-01-10T08:53:53Z</time>
      </trkpt>
      <trkpt lat="47.2546" lon="-1.63227">
        <ele>73</ele>
        <time>2012-01-10T08:53:57Z</time>
      </trkpt>
      <trkpt lat="47.2546" lon="-1.63236">
        <ele>73</ele>
        <time>2012-01-10T08:54:01Z</time>
      </trkpt>
      <trkpt lat="47.2546" lon="-1.63244">
        <ele>73</ele>
        <time>2012-01-10T08:54:04Z</time>
      </trkpt>
      <trkpt lat="47.25464" lon="-1.6325">
        <ele>73</ele>
        <time>2012-01-10T08:54:07Z</time>
      </trkpt>
      <trkpt lat="47.25466" lon="-1.63257">
        <ele>73</ele>
        <time>2012-01-10T08:54:10Z</time>
      </trkpt>
      <trkpt lat="47.25469" lon="-1.63262">
        <ele>73</ele>
        <time>2012-01-10T08:54:13Z</time>
      </trkpt>
      <trkpt lat="47.25469" lon="-1.63269">
        <ele>73</ele>
        <time>2012-01-10T08:54:16Z</time>
      </trkpt>
      <trkpt lat="47.2547" lon="-1.63276">
        <ele>73</ele>
        <time>2012-01-10T08:54:20Z</time>
      </trkpt>
      <trkpt lat="47.25471" lon="-1.63284">
        <ele>73</ele>
        <time>2012-01-10T08:54:27Z</time>
      </trkpt>
      <trkpt lat="47.25474" lon="-1.6329">
        <ele>73</ele>
        <time>2012-01-10T08:54:31Z</time>
      </trkpt>
      <trkpt lat="47.25477" lon="-1.63298">
        <ele>73</ele>
        <time>2012-01-10T08:54:34Z</time>
      </trkpt>
      <trkpt lat="47.2548" lon="-1.63302">
        <ele>73</ele>
        <time>2012-01-10T08:54:36Z</time>
      </trkpt>
      <trkpt lat="47.25482" lon="-1.6331">
        <ele>73</ele>
        <time>2012-01-10T08:54:40Z</time>
      </trkpt>
      <trkpt lat="47.25486" lon="-1.63316">
        <ele>72</ele>
        <time>2012-01-10T08:54:44Z</time>
      </trkpt>
      <trkpt lat="47.25487" lon="-1.63324">
        <ele>72</ele>
        <time>2012-01-10T08:54:47Z</time>
      </trkpt>
      <trkpt lat="47.25491" lon="-1.63329">
        <ele>72</ele>
        <time>2012-01-10T08:54:50Z</time>
      </trkpt>
      <trkpt lat="47.25494" lon="-1.63335">
        <ele>72</ele>
        <time>2012-01-10T08:54:54Z</time>
      </trkpt>
      <trkpt lat="47.25495" lon="-1.63343">
        <ele>72</ele>
        <time>2012-01-10T08:54:57Z</time>
      </trkpt>
      <trkpt lat="47.25499" lon="-1.63345">
        <ele>72</ele>
        <time>2012-01-10T08:54:59Z</time>
      </trkpt>
      <trkpt lat="47.25503" lon="-1.63349">
        <ele>71</ele>
        <time>2012-01-10T08:55:02Z</time>
      </trkpt>
      <trkpt lat="47.25506" lon="-1.63354">
        <ele>70</ele>
        <time>2012-01-10T08:55:05Z</time>
      </trkpt>
      <trkpt lat="47.2551" lon="-1.63357">
        <ele>70</ele>
        <time>2012-01-10T08:55:08Z</time>
      </trkpt>
      <trkpt lat="47.25515" lon="-1.6336">
        <ele>70</ele>
        <time>2012-01-10T08:55:13Z</time>
      </trkpt>
      <trkpt lat="47.25521" lon="-1.63365">
        <ele>70</ele>
        <time>2012-01-10T08:55:17Z</time>
      </trkpt>
      <trkpt lat="47.25524" lon="-1.63371">
        <ele>69</ele>
        <time>2012-01-10T08:55:20Z</time>
      </trkpt>
      <trkpt lat="47.25527" lon="-1.63379">
        <ele>69</ele>
        <time>2012-01-10T08:55:23Z</time>
      </trkpt>
      <trkpt lat="47.25528" lon="-1.63386">
        <ele>69</ele>
        <time>2012-01-10T08:55:26Z</time>
      </trkpt>
      <trkpt lat="47.2553" lon="-1.63392">
        <ele>69</ele>
        <time>2012-01-10T08:55:29Z</time>
      </trkpt>
      <trkpt lat="47.2553" lon="-1.63401">
        <ele>69</ele>
        <time>2012-01-10T08:55:32Z</time>
      </trkpt>
      <trkpt lat="47.2553" lon="-1.63409">
        <ele>69</ele>
        <time>2012-01-10T08:55:35Z</time>
      </trkpt>
      <trkpt lat="47.2553" lon="-1.63416">
        <ele>69</ele>
        <time>2012-01-10T08:55:39Z</time>
      </trkpt>
      <trkpt lat="47.25531" lon="-1.63425">
        <ele>68</ele>
        <time>2012-01-10T08:55:43Z</time>
      </trkpt>
      <trkpt lat="47.25531" lon="-1.63432">
        <ele>68</ele>
        <time>2012-01-10T08:55:46Z</time>
      </trkpt>
      <trkpt lat="47.25533" lon="-1.63439">
        <ele>68</ele>
        <time>2012-01-10T08:55:49Z</time>
      </trkpt>
      <trkpt lat="47.25534" lon="-1.63447">
        <ele>68</ele>
        <time>2012-01-10T08:55:53Z</time>
      </trkpt>
      <trkpt lat="47.25531" lon="-1.63456">
        <ele>68</ele>
        <time>2012-01-10T08:55:56Z</time>
      </trkpt>
      <trkpt lat="47.25531" lon="-1.63464">
        <ele>68</ele>
        <time>2012-01-10T08:55:59Z</time>
      </trkpt>
      <trkpt lat="47.25531" lon="-1.63472">
        <ele>68</ele>
        <time>2012-01-10T08:56:02Z</time>
      </trkpt>
      <trkpt lat="47.2553" lon="-1.63479">
        <ele>68</ele>
        <time>2012-01-10T08:56:05Z</time>
      </trkpt>
      <trkpt lat="47.2553" lon="-1.63486">
        <ele>68</ele>
        <time>2012-01-10T08:56:08Z</time>
      </trkpt>
      <trkpt lat="47.2553" lon="-1.63494">
        <ele>68</ele>
        <time>2012-01-10T08:56:11Z</time>
      </trkpt>
      <trkpt lat="47.25532" lon="-1.635">
        <ele>67</ele>
        <time>2012-01-10T08:56:14Z</time>
      </trkpt>
      <trkpt lat="47.25532" lon="-1.63508">
        <ele>67</ele>
        <time>2012-01-10T08:56:18Z</time>
      </trkpt>
      <trkpt lat="47.25532" lon="-1.63517">
        <ele>67</ele>
        <time>2012-01-10T08:56:22Z</time>
      </trkpt>
      <trkpt lat="47.25533" lon="-1.63525">
        <ele>67</ele>
        <time>2012-01-10T08:56:26Z</time>
      </trkpt>
      <trkpt lat="47.25533" lon="-1.63534">
        <ele>67</ele>
        <time>2012-01-10T08:56:29Z</time>
      </trkpt>
      <trkpt lat="47.25538" lon="-1.63535">
        <ele>67</ele>
        <time>2012-01-10T08:56:31Z</time>
      </trkpt>
      <trkpt lat="47.25539" lon="-1.63542">
        <ele>67</ele>
        <time>2012-01-10T08:56:35Z</time>
      </trkpt>
      <trkpt lat="47.2554" lon="-1.63549">
        <ele>67</ele>
        <time>2012-01-10T08:56:38Z</time>
      </trkpt>
      <trkpt lat="47.2554" lon="-1.63559">
        <ele>66</ele>
        <time>2012-01-10T08:56:41Z</time>
      </trkpt>
      <trkpt lat="47.25542" lon="-1.63566">
        <ele>66</ele>
        <time>2012-01-10T08:56:44Z</time>
      </trkpt>
      <trkpt lat="47.25547" lon="-1.63569">
        <ele>66</ele>
        <time>2012-01-10T08:56:47Z</time>
      </trkpt>
      <trkpt lat="47.25548" lon="-1.63577">
        <ele>66</ele>
        <time>2012-01-10T08:56:51Z</time>
      </trkpt>
      <trkpt lat="47.25549" lon="-1.63585">
        <ele>64</ele>
        <time>2012-01-10T08:56:54Z</time>
      </trkpt>
      <trkpt lat="47.25548" lon="-1.63595">
        <ele>64</ele>
        <time>2012-01-10T08:56:58Z</time>
      </trkpt>
      <trkpt lat="47.25547" lon="-1.63602">
        <ele>64</ele>
        <time>2012-01-10T08:57:01Z</time>
      </trkpt>
      <trkpt lat="47.25547" lon="-1.63611">
        <ele>64</ele>
        <time>2012-01-10T08:57:05Z</time>
      </trkpt>
      <trkpt lat="47.25544" lon="-1.63618">
        <ele>64</ele>
        <time>2012-01-10T08:57:08Z</time>
      </trkpt>
      <trkpt lat="47.25539" lon="-1.63622">
        <ele>64</ele>
        <time>2012-01-10T08:57:11Z</time>
      </trkpt>
      <trkpt lat="47.25534" lon="-1.63625">
        <ele>64</ele>
        <time>2012-01-10T08:57:14Z</time>
      </trkpt>
      <trkpt lat="47.25529" lon="-1.63628">
        <ele>64</ele>
        <time>2012-01-10T08:57:17Z</time>
      </trkpt>
      <trkpt lat="47.25523" lon="-1.63631">
        <ele>64</ele>
        <time>2012-01-10T08:57:20Z</time>
      </trkpt>
      <trkpt lat="47.2552" lon="-1.63634">
        <ele>64</ele>
        <time>2012-01-10T08:57:23Z</time>
      </trkpt>
      <trkpt lat="47.25514" lon="-1.63639">
        <ele>64</ele>
        <time>2012-01-10T08:57:26Z</time>
      </trkpt>
      <trkpt lat="47.2551" lon="-1.63642">
        <ele>64</ele>
        <time>2012-01-10T08:57:28Z</time>
      </trkpt>
      <trkpt lat="47.25504" lon="-1.63645">
        <ele>64</ele>
        <time>2012-01-10T08:57:32Z</time>
      </trkpt>
      <trkpt lat="47.25499" lon="-1.63648">
        <ele>65</ele>
        <time>2012-01-10T08:57:36Z</time>
      </trkpt>
      <trkpt lat="47.25494" lon="-1.63653">
        <ele>65</ele>
        <time>2012-01-10T08:57:39Z</time>
      </trkpt>
      <trkpt lat="47.25488" lon="-1.63656">
        <ele>65</ele>
        <time>2012-01-10T08:57:44Z</time>
      </trkpt>
      <trkpt lat="47.25482" lon="-1.63659">
        <ele>66</ele>
        <time>2012-01-10T08:57:47Z</time>
      </trkpt>
      <trkpt lat="47.25477" lon="-1.63664">
        <ele>66</ele>
        <time>2012-01-10T08:57:53Z</time>
      </trkpt>
      <trkpt lat="47.25472" lon="-1.63666">
        <ele>66</ele>
        <time>2012-01-10T08:57:55Z</time>
      </trkpt>
      <trkpt lat="47.25468" lon="-1.63668">
        <ele>63</ele>
        <time>2012-01-10T08:57:59Z</time>
      </trkpt>
      <trkpt lat="47.25462" lon="-1.63672">
        <ele>63</ele>
        <time>2012-01-10T08:58:03Z</time>
      </trkpt>
      <trkpt lat="47.25457" lon="-1.63674">
        <ele>63</ele>
        <time>2012-01-10T08:58:06Z</time>
      </trkpt>
      <trkpt lat="47.25452" lon="-1.63677">
        <ele>64</ele>
        <time>2012-01-10T08:58:08Z</time>
      </trkpt>
      <trkpt lat="47.25447" lon="-1.6368">
        <ele>64</ele>
        <time>2012-01-10T08:58:11Z</time>
      </trkpt>
      <trkpt lat="47.25443" lon="-1.63682">
        <ele>64</ele>
        <time>2012-01-10T08:58:16Z</time>
      </trkpt>
      <trkpt lat="47.25437" lon="-1.63685">
        <ele>64</ele>
        <time>2012-01-10T08:58:19Z</time>
      </trkpt>
      <trkpt lat="47.25432" lon="-1.6369">
        <ele>64</ele>
        <time>2012-01-10T08:58:23Z</time>
      </trkpt>
      <trkpt lat="47.25426" lon="-1.63691">
        <ele>64</ele>
        <time>2012-01-10T08:58:26Z</time>
      </trkpt>
      <trkpt lat="47.2542" lon="-1.63693">
        <ele>64</ele>
        <time>2012-01-10T08:58:30Z</time>
      </trkpt>
      <trkpt lat="47.25416" lon="-1.63695">
        <ele>64</ele>
        <time>2012-01-10T08:58:33Z</time>
      </trkpt>
      <trkpt lat="47.25411" lon="-1.63696">
        <ele>64</ele>
        <time>2012-01-10T08:58:37Z</time>
      </trkpt>
      <trkpt lat="47.25405" lon="-1.63695">
        <ele>64</ele>
        <time>2012-01-10T08:58:42Z</time>
      </trkpt>
      <trkpt lat="47.254" lon="-1.63695">
        <ele>64</ele>
        <time>2012-01-10T08:58:45Z</time>
      </trkpt>
      <trkpt lat="47.25396" lon="-1.63695">
        <ele>64</ele>
        <time>2012-01-10T08:58:48Z</time>
      </trkpt>
      <trkpt lat="47.25391" lon="-1.63695">
        <ele>64</ele>
        <time>2012-01-10T08:58:51Z</time>
      </trkpt>
      <trkpt lat="47.25385" lon="-1.63692">
        <ele>64</ele>
        <time>2012-01-10T08:58:55Z</time>
      </trkpt>
      <trkpt lat="47.25381" lon="-1.63688">
        <ele>64</ele>
        <time>2012-01-10T08:58:59Z</time>
      </trkpt>
      <trkpt lat="47.25375" lon="-1.63685">
        <ele>64</ele>
        <time>2012-01-10T08:59:02Z</time>
      </trkpt>
      <trkpt lat="47.25372" lon="-1.6368">
        <ele>64</ele>
        <time>2012-01-10T08:59:05Z</time>
      </trkpt>
      <trkpt lat="47.25372" lon="-1.6368">
        <ele>64</ele>
        <time>2012-01-10T08:59:05Z</time>
      </trkpt>
      <trkpt lat="47.25372" lon="-1.6368">
        <ele>64</ele>
        <time>2012-01-10T08:59:06Z</time>
      </trkpt>
      <trkpt lat="47.25366" lon="-1.63678">
        <ele>64</ele>
        <time>2012-01-10T08:59:09Z</time>
      </trkpt>
      <trkpt lat="47.2536" lon="-1.63678">
        <ele>64</ele>
        <time>2012-01-10T08:59:11Z</time>
      </trkpt>
      <trkpt lat="47.25354" lon="-1.63675">
        <ele>64</ele>
        <time>2012-01-10T08:59:14Z</time>
      </trkpt>
      <trkpt lat="47.2535" lon="-1.63672">
        <ele>64</ele>
        <time>2012-01-10T08:59:18Z</time>
      </trkpt>
      <trkpt lat="47.25344" lon="-1.63668">
        <ele>64</ele>
        <time>2012-01-10T08:59:21Z</time>
      </trkpt>
      <trkpt lat="47.2534" lon="-1.63665">
        <ele>65</ele>
        <time>2012-01-10T08:59:24Z</time>
      </trkpt>
      <trkpt lat="47.25334" lon="-1.6366">
        <ele>65</ele>
        <time>2012-01-10T08:59:28Z</time>
      </trkpt>
      <trkpt lat="47.2533" lon="-1.63656">
        <ele>63</ele>
        <time>2012-01-10T08:59:31Z</time>
      </trkpt>
      <trkpt lat="47.25328" lon="-1.63648">
        <ele>63</ele>
        <time>2012-01-10T08:59:35Z</time>
      </trkpt>
      <trkpt lat="47.25324" lon="-1.63644">
        <ele>63</ele>
        <time>2012-01-10T08:59:38Z</time>
      </trkpt>
      <trkpt lat="47.25319" lon="-1.63642">
        <ele>63</ele>
        <time>2012-01-10T08:59:41Z</time>
      </trkpt>
      <trkpt lat="47.25314" lon="-1.6364">
        <ele>63</ele>
        <time>2012-01-10T08:59:44Z</time>
      </trkpt>
      <trkpt lat="47.25309" lon="-1.63645">
        <ele>63</ele>
        <time>2012-01-10T08:59:48Z</time>
      </trkpt>
      <trkpt lat="47.25306" lon="-1.63651">
        <ele>62</ele>
        <time>2012-01-10T08:59:50Z</time>
      </trkpt>
      <trkpt lat="47.25306" lon="-1.6366">
        <ele>62</ele>
        <time>2012-01-10T08:59:53Z</time>
      </trkpt>
      <trkpt lat="47.25306" lon="-1.63668">
        <ele>62</ele>
        <time>2012-01-10T08:59:56Z</time>
      </trkpt>
      <trkpt lat="47.25305" lon="-1.63676">
        <ele>62</ele>
        <time>2012-01-10T08:59:59Z</time>
      </trkpt>
      <trkpt lat="47.25304" lon="-1.63685">
        <ele>62</ele>
        <time>2012-01-10T09:00:03Z</time>
      </trkpt>
      <trkpt lat="47.25304" lon="-1.63693">
        <ele>61</ele>
        <time>2012-01-10T09:00:08Z</time>
      </trkpt>
      <trkpt lat="47.25301" lon="-1.63698">
        <ele>61</ele>
        <time>2012-01-10T09:00:10Z</time>
      </trkpt>
      <trkpt lat="47.253" lon="-1.63705">
        <ele>61</ele>
        <time>2012-01-10T09:00:15Z</time>
      </trkpt>
      <trkpt lat="47.25301" lon="-1.63713">
        <ele>61</ele>
        <time>2012-01-10T09:00:19Z</time>
      </trkpt>
      <trkpt lat="47.25301" lon="-1.63721">
        <ele>61</ele>
        <time>2012-01-10T09:00:24Z</time>
      </trkpt>
      <trkpt lat="47.25303" lon="-1.63729">
        <ele>61</ele>
        <time>2012-01-10T09:00:34Z</time>
      </trkpt>
      <trkpt lat="47.25307" lon="-1.63737">
        <ele>61</ele>
        <time>2012-01-10T09:00:38Z</time>
      </trkpt>
      <trkpt lat="47.25308" lon="-1.63745">
        <ele>61</ele>
        <time>2012-01-10T09:00:41Z</time>
      </trkpt>
      <trkpt lat="47.25307" lon="-1.63753">
        <ele>60</ele>
        <time>2012-01-10T09:00:44Z</time>
      </trkpt>
      <trkpt lat="47.25304" lon="-1.63761">
        <ele>60</ele>
        <time>2012-01-10T09:00:48Z</time>
      </trkpt>
      <trkpt lat="47.25303" lon="-1.63769">
        <ele>60</ele>
        <time>2012-01-10T09:00:56Z</time>
      </trkpt>
      <trkpt lat="47.25302" lon="-1.63777">
        <ele>60</ele>
        <time>2012-01-10T09:00:59Z</time>
      </trkpt>
      <trkpt lat="47.25303" lon="-1.63786">
        <ele>60</ele>
        <time>2012-01-10T09:01:02Z</time>
      </trkpt>
      <trkpt lat="47.25304" lon="-1.63793">
        <ele>60</ele>
        <time>2012-01-10T09:01:05Z</time>
      </trkpt>
      <trkpt lat="47.25307" lon="-1.63799">
        <ele>59</ele>
        <time>2012-01-10T09:01:08Z</time>
      </trkpt>
      <trkpt lat="47.25309" lon="-1.63806">
        <ele>59</ele>
        <time>2012-01-10T09:01:12Z</time>
      </trkpt>
      <trkpt lat="47.25309" lon="-1.63815">
        <ele>59</ele>
        <time>2012-01-10T09:01:18Z</time>
      </trkpt>
      <trkpt lat="47.25307" lon="-1.63823">
        <ele>59</ele>
        <time>2012-01-10T09:01:20Z</time>
      </trkpt>
      <trkpt lat="47.25307" lon="-1.63832">
        <ele>59</ele>
        <time>2012-01-10T09:01:23Z</time>
      </trkpt>
      <trkpt lat="47.25312" lon="-1.63835">
        <ele>58</ele>
        <time>2012-01-10T09:01:25Z</time>
      </trkpt>
      <trkpt lat="47.25312" lon="-1.63842">
        <ele>58</ele>
        <time>2012-01-10T09:01:29Z</time>
      </trkpt>
      <trkpt lat="47.25311" lon="-1.63849">
        <ele>58</ele>
        <time>2012-01-10T09:01:33Z</time>
      </trkpt>
      <trkpt lat="47.2531" lon="-1.63857">
        <ele>57</ele>
        <time>2012-01-10T09:01:37Z</time>
      </trkpt>
      <trkpt lat="47.25307" lon="-1.63862">
        <ele>57</ele>
        <time>2012-01-10T09:01:41Z</time>
      </trkpt>
      <trkpt lat="47.25302" lon="-1.63868">
        <ele>57</ele>
        <time>2012-01-10T09:01:45Z</time>
      </trkpt>
      <trkpt lat="47.25296" lon="-1.63872">
        <ele>57</ele>
        <time>2012-01-10T09:01:48Z</time>
      </trkpt>
      <trkpt lat="47.25292" lon="-1.63875">
        <ele>57</ele>
        <time>2012-01-10T09:01:51Z</time>
      </trkpt>
      <trkpt lat="47.25286" lon="-1.63878">
        <ele>57</ele>
        <time>2012-01-10T09:01:54Z</time>
      </trkpt>
      <trkpt lat="47.25282" lon="-1.63882">
        <ele>57</ele>
        <time>2012-01-10T09:01:57Z</time>
      </trkpt>
      <trkpt lat="47.25276" lon="-1.63884">
        <ele>57</ele>
        <time>2012-01-10T09:02:01Z</time>
      </trkpt>
      <trkpt lat="47.2527" lon="-1.63887">
        <ele>57</ele>
        <time>2012-01-10T09:02:04Z</time>
      </trkpt>
      <trkpt lat="47.25265" lon="-1.63889">
        <ele>56</ele>
        <time>2012-01-10T09:02:08Z</time>
      </trkpt>
      <trkpt lat="47.2526" lon="-1.6389">
        <ele>56</ele>
        <time>2012-01-10T09:02:11Z</time>
      </trkpt>
      <trkpt lat="47.25256" lon="-1.63894">
        <ele>56</ele>
        <time>2012-01-10T09:02:15Z</time>
      </trkpt>
      <trkpt lat="47.25251" lon="-1.63897">
        <ele>56</ele>
        <time>2012-01-10T09:02:17Z</time>
      </trkpt>
      <trkpt lat="47.25245" lon="-1.63899">
        <ele>55</ele>
        <time>2012-01-10T09:02:20Z</time>
      </trkpt>
      <trkpt lat="47.25241" lon="-1.63901">
        <ele>55</ele>
        <time>2012-01-10T09:02:23Z</time>
      </trkpt>
      <trkpt lat="47.25235" lon="-1.63905">
        <ele>55</ele>
        <time>2012-01-10T09:02:26Z</time>
      </trkpt>
      <trkpt lat="47.25232" lon="-1.6391">
        <ele>55</ele>
        <time>2012-01-10T09:02:30Z</time>
      </trkpt>
      <trkpt lat="47.25226" lon="-1.63915">
        <ele>55</ele>
        <time>2012-01-10T09:02:33Z</time>
      </trkpt>
      <trkpt lat="47.25222" lon="-1.6392">
        <ele>54</ele>
        <time>2012-01-10T09:02:37Z</time>
      </trkpt>
      <trkpt lat="47.25219" lon="-1.63927">
        <ele>54</ele>
        <time>2012-01-10T09:02:42Z</time>
      </trkpt>
      <trkpt lat="47.25215" lon="-1.63932">
        <ele>54</ele>
        <time>2012-01-10T09:02:45Z</time>
      </trkpt>
      <trkpt lat="47.25213" lon="-1.63938">
        <ele>54</ele>
        <time>2012-01-10T09:02:48Z</time>
      </trkpt>
      <trkpt lat="47.25208" lon="-1.63944">
        <ele>54</ele>
        <time>2012-01-10T09:02:52Z</time>
      </trkpt>
      <trkpt lat="47.25204" lon="-1.63948">
        <ele>54</ele>
        <time>2012-01-10T09:02:56Z</time>
      </trkpt>
      <trkpt lat="47.252" lon="-1.63954">
        <ele>54</ele>
        <time>2012-01-10T09:03:00Z</time>
      </trkpt>
      <trkpt lat="47.25197" lon="-1.6396">
        <ele>54</ele>
        <time>2012-01-10T09:03:04Z</time>
      </trkpt>
      <trkpt lat="47.25193" lon="-1.63964">
        <ele>54</ele>
        <time>2012-01-10T09:03:07Z</time>
      </trkpt>
      <trkpt lat="47.25189" lon="-1.6397">
        <ele>54</ele>
        <time>2012-01-10T09:03:11Z</time>
      </trkpt>
      <trkpt lat="47.25186" lon="-1.63976">
        <ele>54</ele>
        <time>2012-01-10T09:03:17Z</time>
      </trkpt>
      <trkpt lat="47.25182" lon="-1.6398">
        <ele>54</ele>
        <time>2012-01-10T09:03:23Z</time>
      </trkpt>
      <trkpt lat="47.25176" lon="-1.63983">
        <ele>54</ele>
        <time>2012-01-10T09:03:28Z</time>
      </trkpt>
      <trkpt lat="47.25172" lon="-1.63988">
        <ele>55</ele>
        <time>2012-01-10T09:03:32Z</time>
      </trkpt>
      <trkpt lat="47.25168" lon="-1.63992">
        <ele>55</ele>
        <time>2012-01-10T09:03:36Z</time>
      </trkpt>
      <trkpt lat="47.25166" lon="-1.63999">
        <ele>55</ele>
        <time>2012-01-10T09:03:40Z</time>
      </trkpt>
      <trkpt lat="47.25161" lon="-1.64002">
        <ele>55</ele>
        <time>2012-01-10T09:03:43Z</time>
      </trkpt>
      <trkpt lat="47.25158" lon="-1.64008">
        <ele>54</ele>
        <time>2012-01-10T09:03:47Z</time>
      </trkpt>
      <trkpt lat="47.25155" lon="-1.64016">
        <ele>54</ele>
        <time>2012-01-10T09:03:49Z</time>
      </trkpt>
      <trkpt lat="47.25154" lon="-1.64024">
        <ele>54</ele>
        <time>2012-01-10T09:03:53Z</time>
      </trkpt>
      <trkpt lat="47.2515" lon="-1.64029">
        <ele>54</ele>
        <time>2012-01-10T09:03:56Z</time>
      </trkpt>
      <trkpt lat="47.25146" lon="-1.64036">
        <ele>53</ele>
        <time>2012-01-10T09:04:03Z</time>
      </trkpt>
      <trkpt lat="47.25143" lon="-1.64042">
        <ele>53</ele>
        <time>2012-01-10T09:04:09Z</time>
      </trkpt>
      <trkpt lat="47.25139" lon="-1.6405">
        <ele>53</ele>
        <time>2012-01-10T09:04:13Z</time>
      </trkpt>
      <trkpt lat="47.25137" lon="-1.64056">
        <ele>53</ele>
        <time>2012-01-10T09:04:15Z</time>
      </trkpt>
      <trkpt lat="47.25134" lon="-1.64063">
        <ele>53</ele>
        <time>2012-01-10T09:04:18Z</time>
      </trkpt>
      <trkpt lat="47.25133" lon="-1.6407">
        <ele>53</ele>
        <time>2012-01-10T09:04:20Z</time>
      </trkpt>
      <trkpt lat="47.25131" lon="-1.64078">
        <ele>53</ele>
        <time>2012-01-10T09:04:22Z</time>
      </trkpt>
      <trkpt lat="47.2513" lon="-1.64084">
        <ele>53</ele>
        <time>2012-01-10T09:04:24Z</time>
      </trkpt>
      <trkpt lat="47.2513" lon="-1.64094">
        <ele>53</ele>
        <time>2012-01-10T09:04:27Z</time>
      </trkpt>
      <trkpt lat="47.25126" lon="-1.64099">
        <ele>53</ele>
        <time>2012-01-10T09:04:30Z</time>
      </trkpt>
      <trkpt lat="47.25124" lon="-1.64105">
        <ele>53</ele>
        <time>2012-01-10T09:04:32Z</time>
      </trkpt>
      <trkpt lat="47.2512" lon="-1.64109">
        <ele>52</ele>
        <time>2012-01-10T09:04:37Z</time>
      </trkpt>
      <trkpt lat="47.25117" lon="-1.64115">
        <ele>52</ele>
        <time>2012-01-10T09:04:41Z</time>
      </trkpt>
      <trkpt lat="47.25113" lon="-1.64118">
        <ele>52</ele>
        <time>2012-01-10T09:04:43Z</time>
      </trkpt>
      <trkpt lat="47.25109" lon="-1.64123">
        <ele>52</ele>
        <time>2012-01-10T09:04:46Z</time>
      </trkpt>
      <trkpt lat="47.25105" lon="-1.64129">
        <ele>52</ele>
        <time>2012-01-10T09:04:50Z</time>
      </trkpt>
      <trkpt lat="47.25101" lon="-1.64133">
        <ele>52</ele>
        <time>2012-01-10T09:04:53Z</time>
      </trkpt>
      <trkpt lat="47.25097" lon="-1.64137">
        <ele>52</ele>
        <time>2012-01-10T09:04:56Z</time>
      </trkpt>
      <trkpt lat="47.25092" lon="-1.6414">
        <ele>52</ele>
        <time>2012-01-10T09:04:59Z</time>
      </trkpt>
      <trkpt lat="47.25088" lon="-1.64146">
        <ele>52</ele>
        <time>2012-01-10T09:05:02Z</time>
      </trkpt>
      <trkpt lat="47.25083" lon="-1.6415">
        <ele>51</ele>
        <time>2012-01-10T09:05:06Z</time>
      </trkpt>
      <trkpt lat="47.25078" lon="-1.64152">
        <ele>51</ele>
        <time>2012-01-10T09:05:09Z</time>
      </trkpt>
      <trkpt lat="47.25074" lon="-1.64157">
        <ele>51</ele>
        <time>2012-01-10T09:05:15Z</time>
      </trkpt>
      <trkpt lat="47.25071" lon="-1.64164">
        <ele>51</ele>
        <time>2012-01-10T09:05:18Z</time>
      </trkpt>
      <trkpt lat="47.25067" lon="-1.64168">
        <ele>51</ele>
        <time>2012-01-10T09:05:21Z</time>
      </trkpt>
      <trkpt lat="47.25065" lon="-1.64175">
        <ele>51</ele>
        <time>2012-01-10T09:05:24Z</time>
      </trkpt>
      <trkpt lat="47.2506" lon="-1.64176">
        <ele>51</ele>
        <time>2012-01-10T09:05:32Z</time>
      </trkpt>
      <trkpt lat="47.25055" lon="-1.64176">
        <ele>51</ele>
        <time>2012-01-10T09:05:47Z</time>
      </trkpt>
      <trkpt lat="47.2505" lon="-1.64177">
        <ele>51</ele>
        <time>2012-01-10T09:05:52Z</time>
      </trkpt>
      <trkpt lat="47.25044" lon="-1.64177">
        <ele>50</ele>
        <time>2012-01-10T09:05:53Z</time>
      </trkpt>
      <trkpt lat="47.25039" lon="-1.64179">
        <ele>50</ele>
        <time>2012-01-10T09:05:55Z</time>
      </trkpt>
      <trkpt lat="47.25035" lon="-1.64183">
        <ele>50</ele>
        <time>2012-01-10T09:05:57Z</time>
      </trkpt>
      <trkpt lat="47.2503" lon="-1.64184">
        <ele>50</ele>
        <time>2012-01-10T09:06:00Z</time>
      </trkpt>
      <trkpt lat="47.25025" lon="-1.64186">
        <ele>50</ele>
        <time>2012-01-10T09:06:02Z</time>
      </trkpt>
      <trkpt lat="47.2502" lon="-1.64189">
        <ele>50</ele>
        <time>2012-01-10T09:06:04Z</time>
      </trkpt>
      <trkpt lat="47.25015" lon="-1.64192">
        <ele>50</ele>
        <time>2012-01-10T09:06:06Z</time>
      </trkpt>
      <trkpt lat="47.2501" lon="-1.64192">
        <ele>50</ele>
        <time>2012-01-10T09:06:10Z</time>
      </trkpt>
      <trkpt lat="47.25005" lon="-1.64195">
        <ele>50</ele>
        <time>2012-01-10T09:06:15Z</time>
      </trkpt>
      <trkpt lat="47.25001" lon="-1.64198">
        <ele>50</ele>
        <time>2012-01-10T09:06:18Z</time>
      </trkpt>
      <trkpt lat="47.24995" lon="-1.64199">
        <ele>48</ele>
        <time>2012-01-10T09:06:21Z</time>
      </trkpt>
      <trkpt lat="47.2499" lon="-1.64198">
        <ele>48</ele>
        <time>2012-01-10T09:06:25Z</time>
      </trkpt>
      <trkpt lat="47.24985" lon="-1.642">
        <ele>48</ele>
        <time>2012-01-10T09:06:28Z</time>
      </trkpt>
      <trkpt lat="47.24979" lon="-1.64203">
        <ele>48</ele>
        <time>2012-01-10T09:06:31Z</time>
      </trkpt>
      <trkpt lat="47.24974" lon="-1.64205">
        <ele>48</ele>
        <time>2012-01-10T09:06:34Z</time>
      </trkpt>
      <trkpt lat="47.2497" lon="-1.64209">
        <ele>48</ele>
        <time>2012-01-10T09:06:37Z</time>
      </trkpt>
      <trkpt lat="47.24965" lon="-1.64211">
        <ele>48</ele>
        <time>2012-01-10T09:06:41Z</time>
      </trkpt>
      <trkpt lat="47.2496" lon="-1.64214">
        <ele>48</ele>
        <time>2012-01-10T09:06:46Z</time>
      </trkpt>
      <trkpt lat="47.24954" lon="-1.64217">
        <ele>48</ele>
        <time>2012-01-10T09:06:50Z</time>
      </trkpt>
      <trkpt lat="47.24949" lon="-1.64219">
        <ele>48</ele>
        <time>2012-01-10T09:06:53Z</time>
      </trkpt>
      <trkpt lat="47.24944" lon="-1.64221">
        <ele>48</ele>
        <time>2012-01-10T09:06:58Z</time>
      </trkpt>
      <trkpt lat="47.24939" lon="-1.64224">
        <ele>48</ele>
        <time>2012-01-10T09:07:01Z</time>
      </trkpt>
      <trkpt lat="47.24935" lon="-1.64228">
        <ele>48</ele>
        <time>2012-01-10T09:07:07Z</time>
      </trkpt>
      <trkpt lat="47.24934" lon="-1.64234">
        <ele>48</ele>
        <time>2012-01-10T09:07:15Z</time>
      </trkpt>
      <trkpt lat="47.24932" lon="-1.64241">
        <ele>48</ele>
        <time>2012-01-10T09:07:18Z</time>
      </trkpt>
      <trkpt lat="47.24927" lon="-1.64242">
        <ele>47</ele>
        <time>2012-01-10T09:07:21Z</time>
      </trkpt>
      <trkpt lat="47.24921" lon="-1.64241">
        <ele>47</ele>
        <time>2012-01-10T09:07:25Z</time>
      </trkpt>
      <trkpt lat="47.24916" lon="-1.64242">
        <ele>46</ele>
        <time>2012-01-10T09:07:28Z</time>
      </trkpt>
      <trkpt lat="47.2491" lon="-1.64243">
        <ele>46</ele>
        <time>2012-01-10T09:07:31Z</time>
      </trkpt>
      <trkpt lat="47.24904" lon="-1.64244">
        <ele>46</ele>
        <time>2012-01-10T09:07:36Z</time>
      </trkpt>
      <trkpt lat="47.24899" lon="-1.64244">
        <ele>46</ele>
        <time>2012-01-10T09:07:39Z</time>
      </trkpt>
      <trkpt lat="47.24894" lon="-1.64245">
        <ele>45</ele>
        <time>2012-01-10T09:07:45Z</time>
      </trkpt>
      <trkpt lat="47.24888" lon="-1.64245">
        <ele>45</ele>
        <time>2012-01-10T09:07:48Z</time>
      </trkpt>
      <trkpt lat="47.24882" lon="-1.64244">
        <ele>45</ele>
        <time>2012-01-10T09:07:51Z</time>
      </trkpt>
      <trkpt lat="47.24877" lon="-1.64243">
        <ele>45</ele>
        <time>2012-01-10T09:07:54Z</time>
      </trkpt>
      <trkpt lat="47.2487" lon="-1.64243">
        <ele>44</ele>
        <time>2012-01-10T09:07:57Z</time>
      </trkpt>
      <trkpt lat="47.24866" lon="-1.64246">
        <ele>44</ele>
        <time>2012-01-10T09:08:00Z</time>
      </trkpt>
      <trkpt lat="47.2486" lon="-1.64246">
        <ele>44</ele>
        <time>2012-01-10T09:08:05Z</time>
      </trkpt>
      <trkpt lat="47.24855" lon="-1.64247">
        <ele>44</ele>
        <time>2012-01-10T09:08:08Z</time>
      </trkpt>
      <trkpt lat="47.2485" lon="-1.64247">
        <ele>43</ele>
        <time>2012-01-10T09:08:11Z</time>
      </trkpt>
      <trkpt lat="47.24844" lon="-1.64248">
        <ele>43</ele>
        <time>2012-01-10T09:08:15Z</time>
      </trkpt>
      <trkpt lat="47.2484" lon="-1.6425">
        <ele>42</ele>
        <time>2012-01-10T09:08:17Z</time>
      </trkpt>
      <trkpt lat="47.24834" lon="-1.64251">
        <ele>42</ele>
        <time>2012-01-10T09:08:21Z</time>
      </trkpt>
      <trkpt lat="47.24829" lon="-1.64251">
        <ele>42</ele>
        <time>2012-01-10T09:08:25Z</time>
      </trkpt>
      <trkpt lat="47.24824" lon="-1.64251">
        <ele>42</ele>
        <time>2012-01-10T09:08:28Z</time>
      </trkpt>
      <trkpt lat="47.24819" lon="-1.64252">
        <ele>41</ele>
        <time>2012-01-10T09:08:32Z</time>
      </trkpt>
      <trkpt lat="47.24814" lon="-1.64252">
        <ele>41</ele>
        <time>2012-01-10T09:08:36Z</time>
      </trkpt>
      <trkpt lat="47.24809" lon="-1.64251">
        <ele>41</ele>
        <time>2012-01-10T09:08:41Z</time>
      </trkpt>
      <trkpt lat="47.24803" lon="-1.64252">
        <ele>41</ele>
        <time>2012-01-10T09:08:46Z</time>
      </trkpt>
      <trkpt lat="47.24798" lon="-1.64253">
        <ele>41</ele>
        <time>2012-01-10T09:08:49Z</time>
      </trkpt>
      <trkpt lat="47.2479" lon="-1.64256">
        <ele>41</ele>
        <time>2012-01-10T09:08:54Z</time>
      </trkpt>
      <trkpt lat="47.24784" lon="-1.64257">
        <ele>41</ele>
        <time>2012-01-10T09:08:57Z</time>
      </trkpt>
      <trkpt lat="47.24779" lon="-1.64258">
        <ele>41</ele>
        <time>2012-01-10T09:09:02Z</time>
      </trkpt>
      <trkpt lat="47.24774" lon="-1.64259">
        <ele>41</ele>
        <time>2012-01-10T09:09:05Z</time>
      </trkpt>
      <trkpt lat="47.24769" lon="-1.6426">
        <ele>41</ele>
        <time>2012-01-10T09:09:09Z</time>
      </trkpt>
      <trkpt lat="47.24764" lon="-1.6426">
        <ele>41</ele>
        <time>2012-01-10T09:09:12Z</time>
      </trkpt>
      <trkpt lat="47.24758" lon="-1.64262">
        <ele>41</ele>
        <time>2012-01-10T09:09:17Z</time>
      </trkpt>
      <trkpt lat="47.24754" lon="-1.64263">
        <ele>41</ele>
        <time>2012-01-10T09:09:23Z</time>
      </trkpt>
      <trkpt lat="47.24749" lon="-1.64258">
        <ele>40</ele>
        <time>2012-01-10T09:09:37Z</time>
      </trkpt>
      <trkpt lat="47.24746" lon="-1.64252">
        <ele>40</ele>
        <time>2012-01-10T09:09:40Z</time>
      </trkpt>
      <trkpt lat="47.24742" lon="-1.64246">
        <ele>40</ele>
        <time>2012-01-10T09:09:43Z</time>
      </trkpt>
      <trkpt lat="47.2474" lon="-1.64239">
        <ele>40</ele>
        <time>2012-01-10T09:09:47Z</time>
      </trkpt>
      <trkpt lat="47.24736" lon="-1.64233">
        <ele>39</ele>
        <time>2012-01-10T09:09:52Z</time>
      </trkpt>
      <trkpt lat="47.24732" lon="-1.64227">
        <ele>39</ele>
        <time>2012-01-10T09:09:56Z</time>
      </trkpt>
      <trkpt lat="47.24726" lon="-1.64222">
        <ele>39</ele>
        <time>2012-01-10T09:09:59Z</time>
      </trkpt>
      <trkpt lat="47.24724" lon="-1.64228">
        <ele>39</ele>
        <time>2012-01-10T09:10:05Z</time>
      </trkpt>
      <trkpt lat="47.24719" lon="-1.64232">
        <ele>39</ele>
        <time>2012-01-10T09:10:08Z</time>
      </trkpt>
      <trkpt lat="47.24716" lon="-1.64237">
        <ele>39</ele>
        <time>2012-01-10T09:10:11Z</time>
      </trkpt>
      <trkpt lat="47.24712" lon="-1.64241">
        <ele>39</ele>
        <time>2012-01-10T09:10:14Z</time>
      </trkpt>
      <trkpt lat="47.24707" lon="-1.64247">
        <ele>38</ele>
        <time>2012-01-10T09:10:18Z</time>
      </trkpt>
      <trkpt lat="47.24707" lon="-1.64247">
        <ele>38</ele>
        <time>2012-01-10T09:10:18Z</time>
      </trkpt>
      <trkpt lat="47.24707" lon="-1.64247">
        <ele>38</ele>
        <time>2012-01-10T09:12:06Z</time>
      </trkpt>
      <trkpt lat="47.24702" lon="-1.64248">
        <ele>38</ele>
        <time>2012-01-10T09:12:49Z</time>
      </trkpt>
      <trkpt lat="47.24698" lon="-1.64252">
        <ele>37</ele>
        <time>2012-01-10T09:12:52Z</time>
      </trkpt>
      <trkpt lat="47.24694" lon="-1.64256">
        <ele>37</ele>
        <time>2012-01-10T09:12:55Z</time>
      </trkpt>
      <trkpt lat="47.2469" lon="-1.64261">
        <ele>37</ele>
        <time>2012-01-10T09:12:58Z</time>
      </trkpt>
      <trkpt lat="47.24685" lon="-1.64266">
        <ele>36</ele>
        <time>2012-01-10T09:13:01Z</time>
      </trkpt>
      <trkpt lat="47.24681" lon="-1.64269">
        <ele>36</ele>
        <time>2012-01-10T09:13:04Z</time>
      </trkpt>
      <trkpt lat="47.24677" lon="-1.64274">
        <ele>36</ele>
        <time>2012-01-10T09:13:07Z</time>
      </trkpt>
      <trkpt lat="47.24673" lon="-1.64278">
        <ele>36</ele>
        <time>2012-01-10T09:13:10Z</time>
      </trkpt>
      <trkpt lat="47.24669" lon="-1.64283">
        <ele>36</ele>
        <time>2012-01-10T09:13:13Z</time>
      </trkpt>
      <trkpt lat="47.24666" lon="-1.64288">
        <ele>33</ele>
        <time>2012-01-10T09:13:16Z</time>
      </trkpt>
      <trkpt lat="47.24661" lon="-1.64294">
        <ele>33</ele>
        <time>2012-01-10T09:13:20Z</time>
      </trkpt>
      <trkpt lat="47.24655" lon="-1.64296">
        <ele>33</ele>
        <time>2012-01-10T09:13:24Z</time>
      </trkpt>
      <trkpt lat="47.24653" lon="-1.64304">
        <ele>33</ele>
        <time>2012-01-10T09:13:26Z</time>
      </trkpt>
      <trkpt lat="47.24648" lon="-1.64306">
        <ele>33</ele>
        <time>2012-01-10T09:13:30Z</time>
      </trkpt>
      <trkpt lat="47.24644" lon="-1.6431">
        <ele>33</ele>
        <time>2012-01-10T09:13:33Z</time>
      </trkpt>
      <trkpt lat="47.24638" lon="-1.64314">
        <ele>33</ele>
        <time>2012-01-10T09:13:36Z</time>
      </trkpt>
      <trkpt lat="47.24632" lon="-1.64317">
        <ele>33</ele>
        <time>2012-01-10T09:13:40Z</time>
      </trkpt>
      <trkpt lat="47.24627" lon="-1.6432">
        <ele>33</ele>
        <time>2012-01-10T09:13:43Z</time>
      </trkpt>
      <trkpt lat="47.24623" lon="-1.64323">
        <ele>33</ele>
        <time>2012-01-10T09:13:47Z</time>
      </trkpt>
      <trkpt lat="47.24617" lon="-1.64322">
        <ele>32</ele>
        <time>2012-01-10T09:13:52Z</time>
      </trkpt>
      <trkpt lat="47.24613" lon="-1.64318">
        <ele>32</ele>
        <time>2012-01-10T09:14:01Z</time>
      </trkpt>
      <trkpt lat="47.24609" lon="-1.64323">
        <ele>32</ele>
        <time>2012-01-10T09:14:05Z</time>
      </trkpt>
      <trkpt lat="47.24606" lon="-1.64328">
        <ele>32</ele>
        <time>2012-01-10T09:14:08Z</time>
      </trkpt>
      <trkpt lat="47.24608" lon="-1.64336">
        <ele>32</ele>
        <time>2012-01-10T09:14:14Z</time>
      </trkpt>
      <trkpt lat="47.24611" lon="-1.64343">
        <ele>32</ele>
        <time>2012-01-10T09:14:18Z</time>
      </trkpt>
      <trkpt lat="47.24614" lon="-1.64348">
        <ele>33</ele>
        <time>2012-01-10T09:14:21Z</time>
      </trkpt>
      <trkpt lat="47.24616" lon="-1.64357">
        <ele>33</ele>
        <time>2012-01-10T09:14:25Z</time>
      </trkpt>
      <trkpt lat="47.24618" lon="-1.64363">
        <ele>33</ele>
        <time>2012-01-10T09:14:29Z</time>
      </trkpt>
      <trkpt lat="47.24622" lon="-1.64368">
        <ele>33</ele>
        <time>2012-01-10T09:14:32Z</time>
      </trkpt>
      <trkpt lat="47.24625" lon="-1.64373">
        <ele>33</ele>
        <time>2012-01-10T09:14:36Z</time>
      </trkpt>
      <trkpt lat="47.2463" lon="-1.64379">
        <ele>33</ele>
        <time>2012-01-10T09:14:40Z</time>
      </trkpt>
      <trkpt lat="47.24632" lon="-1.64384">
        <ele>33</ele>
        <time>2012-01-10T09:14:43Z</time>
      </trkpt>
      <trkpt lat="47.24636" lon="-1.64389">
        <ele>33</ele>
        <time>2012-01-10T09:14:46Z</time>
      </trkpt>
      <trkpt lat="47.2464" lon="-1.64395">
        <ele>33</ele>
        <time>2012-01-10T09:14:50Z</time>
      </trkpt>
      <trkpt lat="47.24641" lon="-1.64402">
        <ele>33</ele>
        <time>2012-01-10T09:14:53Z</time>
      </trkpt>
      <trkpt lat="47.24645" lon="-1.64408">
        <ele>33</ele>
        <time>2012-01-10T09:14:56Z</time>
      </trkpt>
      <trkpt lat="47.24644" lon="-1.64416">
        <ele>33</ele>
        <time>2012-01-10T09:14:59Z</time>
      </trkpt>
      <trkpt lat="47.24646" lon="-1.64422">
        <ele>34</ele>
        <time>2012-01-10T09:15:02Z</time>
      </trkpt>
      <trkpt lat="47.24647" lon="-1.64428">
        <ele>34</ele>
        <time>2012-01-10T09:15:05Z</time>
      </trkpt>
      <trkpt lat="47.24647" lon="-1.64436">
        <ele>33</ele>
        <time>2012-01-10T09:15:08Z</time>
      </trkpt>
      <trkpt lat="47.24647" lon="-1.64444">
        <ele>33</ele>
        <time>2012-01-10T09:15:12Z</time>
      </trkpt>
      <trkpt lat="47.24648" lon="-1.64452">
        <ele>33</ele>
        <time>2012-01-10T09:15:16Z</time>
      </trkpt>
      <trkpt lat="47.24652" lon="-1.64458">
        <ele>33</ele>
        <time>2012-01-10T09:15:21Z</time>
      </trkpt>
      <trkpt lat="47.24656" lon="-1.64461">
        <ele>33</ele>
        <time>2012-01-10T09:15:25Z</time>
      </trkpt>
      <trkpt lat="47.2466" lon="-1.64466">
        <ele>33</ele>
        <time>2012-01-10T09:15:29Z</time>
      </trkpt>
      <trkpt lat="47.24663" lon="-1.64471">
        <ele>33</ele>
        <time>2012-01-10T09:15:33Z</time>
      </trkpt>
      <trkpt lat="47.24668" lon="-1.64475">
        <ele>34</ele>
        <time>2012-01-10T09:15:36Z</time>
      </trkpt>
      <trkpt lat="47.24672" lon="-1.6448">
        <ele>34</ele>
        <time>2012-01-10T09:15:39Z</time>
      </trkpt>
      <trkpt lat="47.24675" lon="-1.64486">
        <ele>34</ele>
        <time>2012-01-10T09:15:43Z</time>
      </trkpt>
      <trkpt lat="47.24678" lon="-1.64493">
        <ele>34</ele>
        <time>2012-01-10T09:15:47Z</time>
      </trkpt>
      <trkpt lat="47.24681" lon="-1.645">
        <ele>33</ele>
        <time>2012-01-10T09:15:50Z</time>
      </trkpt>
      <trkpt lat="47.24684" lon="-1.64506">
        <ele>33</ele>
        <time>2012-01-10T09:15:55Z</time>
      </trkpt>
      <trkpt lat="47.24687" lon="-1.64511">
        <ele>33</ele>
        <time>2012-01-10T09:15:59Z</time>
      </trkpt>
      <trkpt lat="47.24691" lon="-1.64516">
        <ele>33</ele>
        <time>2012-01-10T09:16:03Z</time>
      </trkpt>
      <trkpt lat="47.24698" lon="-1.64521">
        <ele>33</ele>
        <time>2012-01-10T09:16:06Z</time>
      </trkpt>
      <trkpt lat="47.24704" lon="-1.64523">
        <ele>33</ele>
        <time>2012-01-10T09:16:10Z</time>
      </trkpt>
      <trkpt lat="47.24709" lon="-1.64527">
        <ele>33</ele>
        <time>2012-01-10T09:16:16Z</time>
      </trkpt>
      <trkpt lat="47.24714" lon="-1.64533">
        <ele>33</ele>
        <time>2012-01-10T09:16:20Z</time>
      </trkpt>
      <trkpt lat="47.24718" lon="-1.64537">
        <ele>33</ele>
        <time>2012-01-10T09:16:24Z</time>
      </trkpt>
      <trkpt lat="47.24722" lon="-1.64543">
        <ele>33</ele>
        <time>2012-01-10T09:16:29Z</time>
      </trkpt>
      <trkpt lat="47.24727" lon="-1.64548">
        <ele>33</ele>
        <time>2012-01-10T09:16:33Z</time>
      </trkpt>
      <trkpt lat="47.2473" lon="-1.64553">
        <ele>33</ele>
        <time>2012-01-10T09:16:37Z</time>
      </trkpt>
      <trkpt lat="47.24731" lon="-1.64561">
        <ele>33</ele>
        <time>2012-01-10T09:16:42Z</time>
      </trkpt>
      <trkpt lat="47.24732" lon="-1.64569">
        <ele>33</ele>
        <time>2012-01-10T09:16:46Z</time>
      </trkpt>
      <trkpt lat="47.24737" lon="-1.64573">
        <ele>33</ele>
        <time>2012-01-10T09:16:50Z</time>
      </trkpt>
      <trkpt lat="47.24742" lon="-1.64572">
        <ele>32</ele>
        <time>2012-01-10T09:16:54Z</time>
      </trkpt>
      <trkpt lat="47.24748" lon="-1.64572">
        <ele>32</ele>
        <time>2012-01-10T09:16:58Z</time>
      </trkpt>
      <trkpt lat="47.24753" lon="-1.64572">
        <ele>33</ele>
        <time>2012-01-10T09:17:01Z</time>
      </trkpt>
      <trkpt lat="47.24758" lon="-1.64571">
        <ele>33</ele>
        <time>2012-01-10T09:17:04Z</time>
      </trkpt>
      <trkpt lat="47.24763" lon="-1.64573">
        <ele>33</ele>
        <time>2012-01-10T09:17:08Z</time>
      </trkpt>
      <trkpt lat="47.24768" lon="-1.64575">
        <ele>33</ele>
        <time>2012-01-10T09:17:12Z</time>
      </trkpt>
      <trkpt lat="47.24772" lon="-1.64579">
        <ele>33</ele>
        <time>2012-01-10T09:17:16Z</time>
      </trkpt>
      <trkpt lat="47.24777" lon="-1.64582">
        <ele>33</ele>
        <time>2012-01-10T09:17:19Z</time>
      </trkpt>
      <trkpt lat="47.24781" lon="-1.64585">
        <ele>32</ele>
        <time>2012-01-10T09:17:23Z</time>
      </trkpt>
      <trkpt lat="47.24787" lon="-1.64586">
        <ele>32</ele>
        <time>2012-01-10T09:17:28Z</time>
      </trkpt>
      <trkpt lat="47.24793" lon="-1.64587">
        <ele>32</ele>
        <time>2012-01-10T09:17:32Z</time>
      </trkpt>
      <trkpt lat="47.24798" lon="-1.64588">
        <ele>32</ele>
        <time>2012-01-10T09:17:35Z</time>
      </trkpt>
      <trkpt lat="47.24803" lon="-1.64593">
        <ele>32</ele>
        <time>2012-01-10T09:17:38Z</time>
      </trkpt>
      <trkpt lat="47.24803" lon="-1.646">
        <ele>32</ele>
        <time>2012-01-10T09:17:42Z</time>
      </trkpt>
      <trkpt lat="47.24801" lon="-1.64606">
        <ele>32</ele>
        <time>2012-01-10T09:17:45Z</time>
      </trkpt>
      <trkpt lat="47.24796" lon="-1.64608">
        <ele>32</ele>
        <time>2012-01-10T09:17:48Z</time>
      </trkpt>
      <trkpt lat="47.2479" lon="-1.64609">
        <ele>32</ele>
        <time>2012-01-10T09:17:52Z</time>
      </trkpt>
      <trkpt lat="47.24786" lon="-1.64608">
        <ele>32</ele>
        <time>2012-01-10T09:17:56Z</time>
      </trkpt>
      <trkpt lat="47.2478" lon="-1.64608">
        <ele>32</ele>
        <time>2012-01-10T09:18:00Z</time>
      </trkpt>
      <trkpt lat="47.24774" lon="-1.6461">
        <ele>32</ele>
        <time>2012-01-10T09:18:03Z</time>
      </trkpt>
      <trkpt lat="47.24769" lon="-1.64613">
        <ele>32</ele>
        <time>2012-01-10T09:18:06Z</time>
      </trkpt>
      <trkpt lat="47.24765" lon="-1.64617">
        <ele>32</ele>
        <time>2012-01-10T09:18:10Z</time>
      </trkpt>
      <trkpt lat="47.2476" lon="-1.64622">
        <ele>32</ele>
        <time>2012-01-10T09:18:14Z</time>
      </trkpt>
      <trkpt lat="47.24756" lon="-1.64628">
        <ele>32</ele>
        <time>2012-01-10T09:18:17Z</time>
      </trkpt>
      <trkpt lat="47.24752" lon="-1.64632">
        <ele>32</ele>
        <time>2012-01-10T09:18:20Z</time>
      </trkpt>
      <trkpt lat="47.24746" lon="-1.64633">
        <ele>31</ele>
        <time>2012-01-10T09:18:23Z</time>
      </trkpt>
      <trkpt lat="47.2474" lon="-1.64631">
        <ele>31</ele>
        <time>2012-01-10T09:18:27Z</time>
      </trkpt>
      <trkpt lat="47.24734" lon="-1.6463">
        <ele>31</ele>
        <time>2012-01-10T09:18:32Z</time>
      </trkpt>
      <trkpt lat="47.24728" lon="-1.64629">
        <ele>31</ele>
        <time>2012-01-10T09:18:35Z</time>
      </trkpt>
      <trkpt lat="47.24722" lon="-1.64629">
        <ele>31</ele>
        <time>2012-01-10T09:18:38Z</time>
      </trkpt>
      <trkpt lat="47.24716" lon="-1.64628">
        <ele>31</ele>
        <time>2012-01-10T09:18:42Z</time>
      </trkpt>
      <trkpt lat="47.24712" lon="-1.64625">
        <ele>32</ele>
        <time>2012-01-10T09:18:46Z</time>
      </trkpt>
      <trkpt lat="47.24707" lon="-1.64622">
        <ele>31</ele>
        <time>2012-01-10T09:18:50Z</time>
      </trkpt>
      <trkpt lat="47.24703" lon="-1.64618">
        <ele>31</ele>
        <time>2012-01-10T09:18:54Z</time>
      </trkpt>
      <trkpt lat="47.24699" lon="-1.64612">
        <ele>31</ele>
        <time>2012-01-10T09:18:58Z</time>
      </trkpt>
      <trkpt lat="47.24695" lon="-1.64607">
        <ele>31</ele>
        <time>2012-01-10T09:19:01Z</time>
      </trkpt>
      <trkpt lat="47.24691" lon="-1.64604">
        <ele>31</ele>
        <time>2012-01-10T09:19:03Z</time>
      </trkpt>
      <trkpt lat="47.24687" lon="-1.646">
        <ele>31</ele>
        <time>2012-01-10T09:19:07Z</time>
      </trkpt>
      <trkpt lat="47.24681" lon="-1.64595">
        <ele>31</ele>
        <time>2012-01-10T09:19:11Z</time>
      </trkpt>
      <trkpt lat="47.24677" lon="-1.64588">
        <ele>31</ele>
        <time>2012-01-10T09:19:15Z</time>
      </trkpt>
      <trkpt lat="47.24674" lon="-1.64581">
        <ele>32</ele>
        <time>2012-01-10T09:19:19Z</time>
      </trkpt>
      <trkpt lat="47.24669" lon="-1.64579">
        <ele>31</ele>
        <time>2012-01-10T09:19:22Z</time>
      </trkpt>
      <trkpt lat="47.24666" lon="-1.64573">
        <ele>32</ele>
        <time>2012-01-10T09:19:25Z</time>
      </trkpt>
      <trkpt lat="47.24663" lon="-1.64565">
        <ele>32</ele>
        <time>2012-01-10T09:19:27Z</time>
      </trkpt>
      <trkpt lat="47.2466" lon="-1.6456">
        <ele>32</ele>
        <time>2012-01-10T09:19:31Z</time>
      </trkpt>
      <trkpt lat="47.24655" lon="-1.64556">
        <ele>32</ele>
        <time>2012-01-10T09:19:36Z</time>
      </trkpt>
      <trkpt lat="47.2465" lon="-1.64552">
        <ele>33</ele>
        <time>2012-01-10T09:19:40Z</time>
      </trkpt>
      <trkpt lat="47.24646" lon="-1.64549">
        <ele>33</ele>
        <time>2012-01-10T09:19:44Z</time>
      </trkpt>
      <trkpt lat="47.24642" lon="-1.64544">
        <ele>33</ele>
        <time>2012-01-10T09:19:47Z</time>
      </trkpt>
      <trkpt lat="47.24639" lon="-1.64537">
        <ele>33</ele>
        <time>2012-01-10T09:19:51Z</time>
      </trkpt>
      <trkpt lat="47.24635" lon="-1.6453">
        <ele>33</ele>
        <time>2012-01-10T09:19:54Z</time>
      </trkpt>
      <trkpt lat="47.24633" lon="-1.64524">
        <ele>33</ele>
        <time>2012-01-10T09:19:57Z</time>
      </trkpt>
      <trkpt lat="47.24633" lon="-1.64516">
        <ele>33</ele>
        <time>2012-01-10T09:20:01Z</time>
      </trkpt>
      <trkpt lat="47.24635" lon="-1.64509">
        <ele>33</ele>
        <time>2012-01-10T09:20:05Z</time>
      </trkpt>
      <trkpt lat="47.24634" lon="-1.64499">
        <ele>33</ele>
        <time>2012-01-10T09:20:09Z</time>
      </trkpt>
      <trkpt lat="47.24639" lon="-1.64495">
        <ele>33</ele>
        <time>2012-01-10T09:20:17Z</time>
      </trkpt>
      <trkpt lat="47.24642" lon="-1.64489">
        <ele>33</ele>
        <time>2012-01-10T09:20:20Z</time>
      </trkpt>
      <trkpt lat="47.24644" lon="-1.64482">
        <ele>33</ele>
        <time>2012-01-10T09:20:22Z</time>
      </trkpt>
      <trkpt lat="47.24644" lon="-1.64471">
        <ele>33</ele>
        <time>2012-01-10T09:20:24Z</time>
      </trkpt>
      <trkpt lat="47.24643" lon="-1.64462">
        <ele>33</ele>
        <time>2012-01-10T09:20:26Z</time>
      </trkpt>
      <trkpt lat="47.24643" lon="-1.64455">
        <ele>33</ele>
        <time>2012-01-10T09:20:28Z</time>
      </trkpt>
      <trkpt lat="47.24644" lon="-1.64448">
        <ele>33</ele>
        <time>2012-01-10T09:20:29Z</time>
      </trkpt>
      <trkpt lat="47.24644" lon="-1.6444">
        <ele>33</ele>
        <time>2012-01-10T09:20:31Z</time>
      </trkpt>
      <trkpt lat="47.24644" lon="-1.64433">
        <ele>33</ele>
        <time>2012-01-10T09:20:36Z</time>
      </trkpt>
      <trkpt lat="47.24645" lon="-1.64425">
        <ele>34</ele>
        <time>2012-01-10T09:20:40Z</time>
      </trkpt>
      <trkpt lat="47.24645" lon="-1.64418">
        <ele>34</ele>
        <time>2012-01-10T09:20:43Z</time>
      </trkpt>
      <trkpt lat="47.24643" lon="-1.6441">
        <ele>33</ele>
        <time>2012-01-10T09:20:47Z</time>
      </trkpt>
      <trkpt lat="47.2464" lon="-1.64401">
        <ele>33</ele>
        <time>2012-01-10T09:20:52Z</time>
      </trkpt>
      <trkpt lat="47.24636" lon="-1.64397">
        <ele>33</ele>
        <time>2012-01-10T09:20:57Z</time>
      </trkpt>
      <trkpt lat="47.24633" lon="-1.64392">
        <ele>33</ele>
        <time>2012-01-10T09:21:01Z</time>
      </trkpt>
      <trkpt lat="47.24629" lon="-1.64386">
        <ele>33</ele>
        <time>2012-01-10T09:21:06Z</time>
      </trkpt>
      <trkpt lat="47.24624" lon="-1.64386">
        <ele>33</ele>
        <time>2012-01-10T09:21:09Z</time>
      </trkpt>
      <trkpt lat="47.24615" lon="-1.64386">
        <ele>33</ele>
        <time>2012-01-10T09:21:12Z</time>
      </trkpt>
      <trkpt lat="47.2461" lon="-1.64385">
        <ele>33</ele>
        <time>2012-01-10T09:21:14Z</time>
      </trkpt>
      <trkpt lat="47.24606" lon="-1.6438">
        <ele>33</ele>
        <time>2012-01-10T09:21:17Z</time>
      </trkpt>
      <trkpt lat="47.24605" lon="-1.64371">
        <ele>33</ele>
        <time>2012-01-10T09:21:21Z</time>
      </trkpt>
      <trkpt lat="47.24602" lon="-1.64365">
        <ele>33</ele>
        <time>2012-01-10T09:21:23Z</time>
      </trkpt>
      <trkpt lat="47.24602" lon="-1.64357">
        <ele>32</ele>
        <time>2012-01-10T09:21:26Z</time>
      </trkpt>
      <trkpt lat="47.24599" lon="-1.64349">
        <ele>32</ele>
        <time>2012-01-10T09:21:29Z</time>
      </trkpt>
      <trkpt lat="47.24597" lon="-1.64342">
        <ele>32</ele>
        <time>2012-01-10T09:21:32Z</time>
      </trkpt>
      <trkpt lat="47.24594" lon="-1.64335">
        <ele>32</ele>
        <time>2012-01-10T09:21:35Z</time>
      </trkpt>
      <trkpt lat="47.24594" lon="-1.64328">
        <ele>32</ele>
        <time>2012-01-10T09:21:39Z</time>
      </trkpt>
      <trkpt lat="47.2459" lon="-1.64322">
        <ele>32</ele>
        <time>2012-01-10T09:21:42Z</time>
      </trkpt>
      <trkpt lat="47.24584" lon="-1.6432">
        <ele>32</ele>
        <time>2012-01-10T09:21:45Z</time>
      </trkpt>
      <trkpt lat="47.24582" lon="-1.64314">
        <ele>32</ele>
        <time>2012-01-10T09:21:48Z</time>
      </trkpt>
      <trkpt lat="47.24582" lon="-1.64305">
        <ele>32</ele>
        <time>2012-01-10T09:21:51Z</time>
      </trkpt>
      <trkpt lat="47.24584" lon="-1.64298">
        <ele>32</ele>
        <time>2012-01-10T09:21:54Z</time>
      </trkpt>
      <trkpt lat="47.24582" lon="-1.64291">
        <ele>32</ele>
        <time>2012-01-10T09:21:56Z</time>
      </trkpt>
      <trkpt lat="47.24581" lon="-1.64283">
        <ele>32</ele>
        <time>2012-01-10T09:22:00Z</time>
      </trkpt>
      <trkpt lat="47.24576" lon="-1.64283">
        <ele>32</ele>
        <time>2012-01-10T09:22:02Z</time>
      </trkpt>
      <trkpt lat="47.24573" lon="-1.64277">
        <ele>32</ele>
        <time>2012-01-10T09:22:05Z</time>
      </trkpt>
      <trkpt lat="47.24575" lon="-1.64269">
        <ele>32</ele>
        <time>2012-01-10T09:22:09Z</time>
      </trkpt>
      <trkpt lat="47.24576" lon="-1.6426">
        <ele>32</ele>
        <time>2012-01-10T09:22:12Z</time>
      </trkpt>
      <trkpt lat="47.24574" lon="-1.64252">
        <ele>31</ele>
        <time>2012-01-10T09:22:16Z</time>
      </trkpt>
      <trkpt lat="47.24573" lon="-1.64244">
        <ele>31</ele>
        <time>2012-01-10T09:22:19Z</time>
      </trkpt>
      <trkpt lat="47.24571" lon="-1.64239">
        <ele>31</ele>
        <time>2012-01-10T09:22:25Z</time>
      </trkpt>
      <trkpt lat="47.24566" lon="-1.64233">
        <ele>32</ele>
        <time>2012-01-10T09:22:30Z</time>
      </trkpt>
      <trkpt lat="47.24562" lon="-1.64226">
        <ele>32</ele>
        <time>2012-01-10T09:22:33Z</time>
      </trkpt>
      <trkpt lat="47.24559" lon="-1.64218">
        <ele>32</ele>
        <time>2012-01-10T09:22:37Z</time>
      </trkpt>
      <trkpt lat="47.24556" lon="-1.64212">
        <ele>32</ele>
        <time>2012-01-10T09:22:41Z</time>
      </trkpt>
      <trkpt lat="47.24552" lon="-1.64204">
        <ele>32</ele>
        <time>2012-01-10T09:22:45Z</time>
      </trkpt>
      <trkpt lat="47.2455" lon="-1.64197">
        <ele>32</ele>
        <time>2012-01-10T09:22:48Z</time>
      </trkpt>
      <trkpt lat="47.24547" lon="-1.64192">
        <ele>32</ele>
        <time>2012-01-10T09:22:50Z</time>
      </trkpt>
      <trkpt lat="47.24545" lon="-1.64184">
        <ele>32</ele>
        <time>2012-01-10T09:22:53Z</time>
      </trkpt>
      <trkpt lat="47.24542" lon="-1.64179">
        <ele>32</ele>
        <time>2012-01-10T09:22:56Z</time>
      </trkpt>
      <trkpt lat="47.2454" lon="-1.64173">
        <ele>32</ele>
        <time>2012-01-10T09:23:00Z</time>
      </trkpt>
      <trkpt lat="47.24537" lon="-1.64167">
        <ele>32</ele>
        <time>2012-01-10T09:23:03Z</time>
      </trkpt>
      <trkpt lat="47.24533" lon="-1.64162">
        <ele>31</ele>
        <time>2012-01-10T09:23:06Z</time>
      </trkpt>
      <trkpt lat="47.2453" lon="-1.64152">
        <ele>31</ele>
        <time>2012-01-10T09:23:11Z</time>
      </trkpt>
      <trkpt lat="47.24526" lon="-1.64146">
        <ele>31</ele>
        <time>2012-01-10T09:23:14Z</time>
      </trkpt>
      <trkpt lat="47.24522" lon="-1.64142">
        <ele>31</ele>
        <time>2012-01-10T09:23:17Z</time>
      </trkpt>
      <trkpt lat="47.24519" lon="-1.64136">
        <ele>31</ele>
        <time>2012-01-10T09:23:23Z</time>
      </trkpt>
      <trkpt lat="47.24519" lon="-1.64136">
        <ele>31</ele>
        <time>2012-01-10T09:23:23Z</time>
      </trkpt>
      <trkpt lat="47.24519" lon="-1.64136">
        <ele>31</ele>
        <time>2012-01-10T09:23:25Z</time>
      </trkpt>
      <trkpt lat="47.24516" lon="-1.64129">
        <ele>31</ele>
        <time>2012-01-10T09:23:27Z</time>
      </trkpt>
      <trkpt lat="47.24513" lon="-1.64122">
        <ele>31</ele>
        <time>2012-01-10T09:23:30Z</time>
      </trkpt>
      <trkpt lat="47.24509" lon="-1.64116">
        <ele>31</ele>
        <time>2012-01-10T09:23:32Z</time>
      </trkpt>
      <trkpt lat="47.24506" lon="-1.64108">
        <ele>31</ele>
        <time>2012-01-10T09:23:36Z</time>
      </trkpt>
      <trkpt lat="47.24502" lon="-1.64102">
        <ele>31</ele>
        <time>2012-01-10T09:23:40Z</time>
      </trkpt>
      <trkpt lat="47.24499" lon="-1.64095">
        <ele>31</ele>
        <time>2012-01-10T09:23:43Z</time>
      </trkpt>
      <trkpt lat="47.24498" lon="-1.64087">
        <ele>31</ele>
        <time>2012-01-10T09:23:46Z</time>
      </trkpt>
      <trkpt lat="47.24496" lon="-1.6408">
        <ele>31</ele>
        <time>2012-01-10T09:23:49Z</time>
      </trkpt>
      <trkpt lat="47.24492" lon="-1.64075">
        <ele>31</ele>
        <time>2012-01-10T09:23:55Z</time>
      </trkpt>
      <trkpt lat="47.2449" lon="-1.6407">
        <ele>31</ele>
        <time>2012-01-10T09:23:59Z</time>
      </trkpt>
      <trkpt lat="47.24488" lon="-1.64063">
        <ele>32</ele>
        <time>2012-01-10T09:24:02Z</time>
      </trkpt>
      <trkpt lat="47.24485" lon="-1.64058">
        <ele>32</ele>
        <time>2012-01-10T09:24:06Z</time>
      </trkpt>
      <trkpt lat="47.24485" lon="-1.64058">
        <ele>32</ele>
        <time>2012-01-10T09:24:06Z</time>
      </trkpt>
      <trkpt lat="47.24485" lon="-1.64058">
        <ele>32</ele>
        <time>2012-01-10T09:24:07Z</time>
      </trkpt>
      <trkpt lat="47.24482" lon="-1.64047">
        <ele>32</ele>
        <time>2012-01-10T09:24:13Z</time>
      </trkpt>
      <trkpt lat="47.24479" lon="-1.64039">
        <ele>32</ele>
        <time>2012-01-10T09:24:16Z</time>
      </trkpt>
      <trkpt lat="47.24479" lon="-1.64032">
        <ele>32</ele>
        <time>2012-01-10T09:24:20Z</time>
      </trkpt>
      <trkpt lat="47.24477" lon="-1.64025">
        <ele>32</ele>
        <time>2012-01-10T09:24:22Z</time>
      </trkpt>
      <trkpt lat="47.24477" lon="-1.64025">
        <ele>32</ele>
        <time>2012-01-10T09:24:22Z</time>
      </trkpt>
      <trkpt lat="47.24477" lon="-1.64025">
        <ele>32</ele>
        <time>2012-01-10T09:24:23Z</time>
      </trkpt>
      <trkpt lat="47.24473" lon="-1.64016">
        <ele>33</ele>
        <time>2012-01-10T09:24:25Z</time>
      </trkpt>
      <trkpt lat="47.2447" lon="-1.6401">
        <ele>33</ele>
        <time>2012-01-10T09:24:29Z</time>
      </trkpt>
      <trkpt lat="47.24467" lon="-1.64005">
        <ele>33</ele>
        <time>2012-01-10T09:24:34Z</time>
      </trkpt>
      <trkpt lat="47.24465" lon="-1.63997">
        <ele>33</ele>
        <time>2012-01-10T09:24:38Z</time>
      </trkpt>
      <trkpt lat="47.24465" lon="-1.6399">
        <ele>33</ele>
        <time>2012-01-10T09:24:40Z</time>
      </trkpt>
      <trkpt lat="47.24462" lon="-1.63981">
        <ele>32</ele>
        <time>2012-01-10T09:24:42Z</time>
      </trkpt>
      <trkpt lat="47.24459" lon="-1.63972">
        <ele>32</ele>
        <time>2012-01-10T09:24:45Z</time>
      </trkpt>
      <trkpt lat="47.24457" lon="-1.63966">
        <ele>32</ele>
        <time>2012-01-10T09:24:48Z</time>
      </trkpt>
      <trkpt lat="47.24454" lon="-1.63961">
        <ele>32</ele>
        <time>2012-01-10T09:24:53Z</time>
      </trkpt>
      <trkpt lat="47.24451" lon="-1.63955">
        <ele>32</ele>
        <time>2012-01-10T09:24:55Z</time>
      </trkpt>
      <trkpt lat="47.24451" lon="-1.63955">
        <ele>32</ele>
        <time>2012-01-10T09:24:55Z</time>
      </trkpt>
      <trkpt lat="47.24451" lon="-1.63955">
        <ele>32</ele>
        <time>2012-01-10T09:24:56Z</time>
      </trkpt>
      <trkpt lat="47.24448" lon="-1.63948">
        <ele>32</ele>
        <time>2012-01-10T09:24:58Z</time>
      </trkpt>
      <trkpt lat="47.24445" lon="-1.63941">
        <ele>31</ele>
        <time>2012-01-10T09:25:01Z</time>
      </trkpt>
      <trkpt lat="47.24443" lon="-1.63933">
        <ele>31</ele>
        <time>2012-01-10T09:25:04Z</time>
      </trkpt>
      <trkpt lat="47.24441" lon="-1.63925">
        <ele>31</ele>
        <time>2012-01-10T09:25:07Z</time>
      </trkpt>
      <trkpt lat="47.24439" lon="-1.63918">
        <ele>31</ele>
        <time>2012-01-10T09:25:10Z</time>
      </trkpt>
      <trkpt lat="47.24436" lon="-1.63909">
        <ele>31</ele>
        <time>2012-01-10T09:25:21Z</time>
      </trkpt>
      <trkpt lat="47.24434" lon="-1.63903">
        <ele>31</ele>
        <time>2012-01-10T09:25:22Z</time>
      </trkpt>
      <trkpt lat="47.24432" lon="-1.63895">
        <ele>31</ele>
        <time>2012-01-10T09:25:23Z</time>
      </trkpt>
      <trkpt lat="47.24428" lon="-1.63891">
        <ele>31</ele>
        <time>2012-01-10T09:25:25Z</time>
      </trkpt>
      <trkpt lat="47.24425" lon="-1.63884">
        <ele>31</ele>
        <time>2012-01-10T09:25:28Z</time>
      </trkpt>
      <trkpt lat="47.2442" lon="-1.63876">
        <ele>31</ele>
        <time>2012-01-10T09:25:31Z</time>
      </trkpt>
      <trkpt lat="47.24417" lon="-1.63868">
        <ele>32</ele>
        <time>2012-01-10T09:25:34Z</time>
      </trkpt>
      <trkpt lat="47.24416" lon="-1.63862">
        <ele>30</ele>
        <time>2012-01-10T09:25:39Z</time>
      </trkpt>
      <trkpt lat="47.24416" lon="-1.63862">
        <ele>30</ele>
        <time>2012-01-10T09:25:39Z</time>
      </trkpt>
      <trkpt lat="47.24416" lon="-1.63862">
        <ele>30</ele>
        <time>2012-01-10T09:25:40Z</time>
      </trkpt>
      <trkpt lat="47.24416" lon="-1.63854">
        <ele>31</ele>
        <time>2012-01-10T09:25:45Z</time>
      </trkpt>
      <trkpt lat="47.24418" lon="-1.63845">
        <ele>32</ele>
        <time>2012-01-10T09:25:48Z</time>
      </trkpt>
      <trkpt lat="47.24422" lon="-1.63839">
        <ele>32</ele>
        <time>2012-01-10T09:25:51Z</time>
      </trkpt>
      <trkpt lat="47.24424" lon="-1.63833">
        <ele>32</ele>
        <time>2012-01-10T09:25:54Z</time>
      </trkpt>
      <trkpt lat="47.24427" lon="-1.63827">
        <ele>33</ele>
        <time>2012-01-10T09:25:57Z</time>
      </trkpt>
      <trkpt lat="47.24429" lon="-1.6382">
        <ele>33</ele>
        <time>2012-01-10T09:26:00Z</time>
      </trkpt>
      <trkpt lat="47.24428" lon="-1.63812">
        <ele>33</ele>
        <time>2012-01-10T09:26:03Z</time>
      </trkpt>
      <trkpt lat="47.24431" lon="-1.63805">
        <ele>33</ele>
        <time>2012-01-10T09:26:07Z</time>
      </trkpt>
      <trkpt lat="47.24432" lon="-1.63797">
        <ele>33</ele>
        <time>2012-01-10T09:26:11Z</time>
      </trkpt>
      <trkpt lat="47.24435" lon="-1.6379">
        <ele>33</ele>
        <time>2012-01-10T09:26:15Z</time>
      </trkpt>
      <trkpt lat="47.24439" lon="-1.63784">
        <ele>34</ele>
        <time>2012-01-10T09:26:18Z</time>
      </trkpt>
      <trkpt lat="47.24442" lon="-1.63779">
        <ele>34</ele>
        <time>2012-01-10T09:26:21Z</time>
      </trkpt>
      <trkpt lat="47.24444" lon="-1.63772">
        <ele>34</ele>
        <time>2012-01-10T09:26:24Z</time>
      </trkpt>
      <trkpt lat="47.24448" lon="-1.63766">
        <ele>34</ele>
        <time>2012-01-10T09:26:29Z</time>
      </trkpt>
      <trkpt lat="47.24449" lon="-1.6376">
        <ele>34</ele>
        <time>2012-01-10T09:26:33Z</time>
      </trkpt>
      <trkpt lat="47.24443" lon="-1.63757">
        <ele>34</ele>
        <time>2012-01-10T09:29:31Z</time>
      </trkpt>
      <trkpt lat="47.24438" lon="-1.63756">
        <ele>34</ele>
        <time>2012-01-10T09:29:34Z</time>
      </trkpt>
      <trkpt lat="47.24437" lon="-1.63747">
        <ele>34</ele>
        <time>2012-01-10T09:29:38Z</time>
      </trkpt>
      <trkpt lat="47.2444" lon="-1.63741">
        <ele>35</ele>
        <time>2012-01-10T09:29:41Z</time>
      </trkpt>
      <trkpt lat="47.24443" lon="-1.63736">
        <ele>35</ele>
        <time>2012-01-10T09:29:44Z</time>
      </trkpt>
      <trkpt lat="47.24446" lon="-1.6373">
        <ele>35</ele>
        <time>2012-01-10T09:29:48Z</time>
      </trkpt>
      <trkpt lat="47.24449" lon="-1.63723">
        <ele>35</ele>
        <time>2012-01-10T09:29:52Z</time>
      </trkpt>
      <trkpt lat="47.24453" lon="-1.63718">
        <ele>35</ele>
        <time>2012-01-10T09:29:56Z</time>
      </trkpt>
      <trkpt lat="47.24456" lon="-1.63712">
        <ele>36</ele>
        <time>2012-01-10T09:29:59Z</time>
      </trkpt>
      <trkpt lat="47.2446" lon="-1.63705">
        <ele>36</ele>
        <time>2012-01-10T09:30:03Z</time>
      </trkpt>
      <trkpt lat="47.24462" lon="-1.63698">
        <ele>36</ele>
        <time>2012-01-10T09:30:06Z</time>
      </trkpt>
      <trkpt lat="47.24469" lon="-1.63694">
        <ele>36</ele>
        <time>2012-01-10T09:30:11Z</time>
      </trkpt>
      <trkpt lat="47.24474" lon="-1.63691">
        <ele>37</ele>
        <time>2012-01-10T09:30:14Z</time>
      </trkpt>
      <trkpt lat="47.24478" lon="-1.63686">
        <ele>37</ele>
        <time>2012-01-10T09:30:17Z</time>
      </trkpt>
      <trkpt lat="47.24482" lon="-1.63683">
        <ele>38</ele>
        <time>2012-01-10T09:30:21Z</time>
      </trkpt>
      <trkpt lat="47.24486" lon="-1.63679">
        <ele>38</ele>
        <time>2012-01-10T09:30:24Z</time>
      </trkpt>
      <trkpt lat="47.24491" lon="-1.63675">
        <ele>39</ele>
        <time>2012-01-10T09:30:28Z</time>
      </trkpt>
      <trkpt lat="47.24496" lon="-1.6367">
        <ele>40</ele>
        <time>2012-01-10T09:30:31Z</time>
      </trkpt>
      <trkpt lat="47.24502" lon="-1.63667">
        <ele>41</ele>
        <time>2012-01-10T09:30:35Z</time>
      </trkpt>
      <trkpt lat="47.24507" lon="-1.63665">
        <ele>43</ele>
        <time>2012-01-10T09:30:38Z</time>
      </trkpt>
      <trkpt lat="47.24507" lon="-1.63665">
        <ele>43</ele>
        <time>2012-01-10T09:30:38Z</time>
      </trkpt>
      <trkpt lat="47.24507" lon="-1.63665">
        <ele>43</ele>
        <time>2012-01-10T09:30:39Z</time>
      </trkpt>
      <trkpt lat="47.24513" lon="-1.63664">
        <ele>44</ele>
        <time>2012-01-10T09:30:45Z</time>
      </trkpt>
      <trkpt lat="47.24518" lon="-1.63664">
        <ele>44</ele>
        <time>2012-01-10T09:30:48Z</time>
      </trkpt>
      <trkpt lat="47.24523" lon="-1.63665">
        <ele>45</ele>
        <time>2012-01-10T09:30:53Z</time>
      </trkpt>
      <trkpt lat="47.24528" lon="-1.63665">
        <ele>45</ele>
        <time>2012-01-10T09:30:57Z</time>
      </trkpt>
      <trkpt lat="47.24532" lon="-1.63665">
        <ele>46</ele>
        <time>2012-01-10T09:31:00Z</time>
      </trkpt>
      <trkpt lat="47.24537" lon="-1.63665">
        <ele>46</ele>
        <time>2012-01-10T09:31:04Z</time>
      </trkpt>
      <trkpt lat="47.24542" lon="-1.63666">
        <ele>46</ele>
        <time>2012-01-10T09:31:07Z</time>
      </trkpt>
      <trkpt lat="47.24547" lon="-1.63665">
        <ele>47</ele>
        <time>2012-01-10T09:31:11Z</time>
      </trkpt>
      <trkpt lat="47.24552" lon="-1.63663">
        <ele>47</ele>
        <time>2012-01-10T09:31:17Z</time>
      </trkpt>
      <trkpt lat="47.24553" lon="-1.63656">
        <ele>47</ele>
        <time>2012-01-10T09:31:22Z</time>
      </trkpt>
      <trkpt lat="47.24553" lon="-1.6365">
        <ele>47</ele>
        <time>2012-01-10T09:31:27Z</time>
      </trkpt>
      <trkpt lat="47.24553" lon="-1.63642">
        <ele>47</ele>
        <time>2012-01-10T09:31:32Z</time>
      </trkpt>
      <trkpt lat="47.24552" lon="-1.63635">
        <ele>47</ele>
        <time>2012-01-10T09:31:36Z</time>
      </trkpt>
      <trkpt lat="47.24551" lon="-1.63628">
        <ele>47</ele>
        <time>2012-01-10T09:31:40Z</time>
      </trkpt>
      <trkpt lat="47.2455" lon="-1.63621">
        <ele>47</ele>
        <time>2012-01-10T09:31:45Z</time>
      </trkpt>
      <trkpt lat="47.2455" lon="-1.63613">
        <ele>48</ele>
        <time>2012-01-10T09:31:49Z</time>
      </trkpt>
      <trkpt lat="47.24551" lon="-1.63604">
        <ele>48</ele>
        <time>2012-01-10T09:31:54Z</time>
      </trkpt>
      <trkpt lat="47.24551" lon="-1.63596">
        <ele>48</ele>
        <time>2012-01-10T09:31:59Z</time>
      </trkpt>
      <trkpt lat="47.24551" lon="-1.63588">
        <ele>48</ele>
        <time>2012-01-10T09:32:05Z</time>
      </trkpt>
      <trkpt lat="47.24553" lon="-1.63581">
        <ele>49</ele>
        <time>2012-01-10T09:32:10Z</time>
      </trkpt>
      <trkpt lat="47.24558" lon="-1.63578">
        <ele>49</ele>
        <time>2012-01-10T09:32:15Z</time>
      </trkpt>
      <trkpt lat="47.24562" lon="-1.63577">
        <ele>50</ele>
        <time>2012-01-10T09:32:18Z</time>
      </trkpt>
      <trkpt lat="47.24567" lon="-1.63576">
        <ele>50</ele>
        <time>2012-01-10T09:32:22Z</time>
      </trkpt>
      <trkpt lat="47.24572" lon="-1.63574">
        <ele>50</ele>
        <time>2012-01-10T09:32:31Z</time>
      </trkpt>
      <trkpt lat="47.24577" lon="-1.63577">
        <ele>51</ele>
        <time>2012-01-10T09:32:36Z</time>
      </trkpt>
      <trkpt lat="47.24581" lon="-1.63579">
        <ele>51</ele>
        <time>2012-01-10T09:32:40Z</time>
      </trkpt>
      <trkpt lat="47.24586" lon="-1.63581">
        <ele>52</ele>
        <time>2012-01-10T09:32:44Z</time>
      </trkpt>
      <trkpt lat="47.2459" lon="-1.63582">
        <ele>52</ele>
        <time>2012-01-10T09:32:47Z</time>
      </trkpt>
      <trkpt lat="47.24595" lon="-1.63581">
        <ele>53</ele>
        <time>2012-01-10T09:32:52Z</time>
      </trkpt>
      <trkpt lat="47.24601" lon="-1.63582">
        <ele>53</ele>
        <time>2012-01-10T09:32:55Z</time>
      </trkpt>
      <trkpt lat="47.24606" lon="-1.6358">
        <ele>53</ele>
        <time>2012-01-10T09:32:58Z</time>
      </trkpt>
      <trkpt lat="47.24612" lon="-1.63579">
        <ele>53</ele>
        <time>2012-01-10T09:33:02Z</time>
      </trkpt>
      <trkpt lat="47.24619" lon="-1.63578">
        <ele>54</ele>
        <time>2012-01-10T09:33:06Z</time>
      </trkpt>
      <trkpt lat="47.24624" lon="-1.63581">
        <ele>54</ele>
        <time>2012-01-10T09:33:10Z</time>
      </trkpt>
      <trkpt lat="47.2463" lon="-1.63581">
        <ele>54</ele>
        <time>2012-01-10T09:33:15Z</time>
      </trkpt>
      <trkpt lat="47.24636" lon="-1.63581">
        <ele>55</ele>
        <time>2012-01-10T09:33:19Z</time>
      </trkpt>
      <trkpt lat="47.2464" lon="-1.63577">
        <ele>55</ele>
        <time>2012-01-10T09:33:22Z</time>
      </trkpt>
      <trkpt lat="47.24644" lon="-1.63573">
        <ele>55</ele>
        <time>2012-01-10T09:33:29Z</time>
      </trkpt>
      <trkpt lat="47.24647" lon="-1.63566">
        <ele>55</ele>
        <time>2012-01-10T09:33:33Z</time>
      </trkpt>
      <trkpt lat="47.2465" lon="-1.63561">
        <ele>55</ele>
        <time>2012-01-10T09:33:37Z</time>
      </trkpt>
      <trkpt lat="47.24656" lon="-1.63557">
        <ele>55</ele>
        <time>2012-01-10T09:33:40Z</time>
      </trkpt>
      <trkpt lat="47.24661" lon="-1.63554">
        <ele>55</ele>
        <time>2012-01-10T09:33:43Z</time>
      </trkpt>
      <trkpt lat="47.24663" lon="-1.63547">
        <ele>55</ele>
        <time>2012-01-10T09:33:45Z</time>
      </trkpt>
      <trkpt lat="47.24667" lon="-1.63544">
        <ele>57</ele>
        <time>2012-01-10T09:33:48Z</time>
      </trkpt>
      <trkpt lat="47.24669" lon="-1.63538">
        <ele>57</ele>
        <time>2012-01-10T09:33:50Z</time>
      </trkpt>
      <trkpt lat="47.24674" lon="-1.63535">
        <ele>57</ele>
        <time>2012-01-10T09:33:53Z</time>
      </trkpt>
      <trkpt lat="47.24678" lon="-1.63536">
        <ele>57</ele>
        <time>2012-01-10T09:33:58Z</time>
      </trkpt>
      <trkpt lat="47.24683" lon="-1.63538">
        <ele>58</ele>
        <time>2012-01-10T09:34:02Z</time>
      </trkpt>
      <trkpt lat="47.24688" lon="-1.63538">
        <ele>58</ele>
        <time>2012-01-10T09:34:06Z</time>
      </trkpt>
      <trkpt lat="47.24692" lon="-1.63538">
        <ele>58</ele>
        <time>2012-01-10T09:34:10Z</time>
      </trkpt>
      <trkpt lat="47.24697" lon="-1.63538">
        <ele>58</ele>
        <time>2012-01-10T09:34:13Z</time>
      </trkpt>
      <trkpt lat="47.24702" lon="-1.63536">
        <ele>58</ele>
        <time>2012-01-10T09:34:17Z</time>
      </trkpt>
      <trkpt lat="47.24708" lon="-1.63535">
        <ele>58</ele>
        <time>2012-01-10T09:34:20Z</time>
      </trkpt>
      <trkpt lat="47.24712" lon="-1.63533">
        <ele>58</ele>
        <time>2012-01-10T09:34:23Z</time>
      </trkpt>
      <trkpt lat="47.24718" lon="-1.6353">
        <ele>58</ele>
        <time>2012-01-10T09:34:27Z</time>
      </trkpt>
      <trkpt lat="47.24724" lon="-1.63529">
        <ele>58</ele>
        <time>2012-01-10T09:34:31Z</time>
      </trkpt>
      <trkpt lat="47.24728" lon="-1.63526">
        <ele>58</ele>
        <time>2012-01-10T09:34:35Z</time>
      </trkpt>
      <trkpt lat="47.24733" lon="-1.63526">
        <ele>59</ele>
        <time>2012-01-10T09:34:39Z</time>
      </trkpt>
      <trkpt lat="47.24738" lon="-1.63524">
        <ele>59</ele>
        <time>2012-01-10T09:34:42Z</time>
      </trkpt>
      <trkpt lat="47.24743" lon="-1.63521">
        <ele>59</ele>
        <time>2012-01-10T09:34:45Z</time>
      </trkpt>
      <trkpt lat="47.24749" lon="-1.6352">
        <ele>59</ele>
        <time>2012-01-10T09:34:49Z</time>
      </trkpt>
      <trkpt lat="47.24754" lon="-1.6352">
        <ele>60</ele>
        <time>2012-01-10T09:34:52Z</time>
      </trkpt>
      <trkpt lat="47.24758" lon="-1.63519">
        <ele>60</ele>
        <time>2012-01-10T09:34:56Z</time>
      </trkpt>
      <trkpt lat="47.24763" lon="-1.63517">
        <ele>60</ele>
        <time>2012-01-10T09:35:00Z</time>
      </trkpt>
      <trkpt lat="47.24768" lon="-1.63515">
        <ele>60</ele>
        <time>2012-01-10T09:35:03Z</time>
      </trkpt>
      <trkpt lat="47.24772" lon="-1.63509">
        <ele>60</ele>
        <time>2012-01-10T09:35:06Z</time>
      </trkpt>
      <trkpt lat="47.24778" lon="-1.63508">
        <ele>60</ele>
        <time>2012-01-10T09:35:10Z</time>
      </trkpt>
      <trkpt lat="47.24782" lon="-1.63504">
        <ele>60</ele>
        <time>2012-01-10T09:35:14Z</time>
      </trkpt>
      <trkpt lat="47.24786" lon="-1.63499">
        <ele>59</ele>
        <time>2012-01-10T09:35:17Z</time>
      </trkpt>
      <trkpt lat="47.24791" lon="-1.63498">
        <ele>59</ele>
        <time>2012-01-10T09:35:21Z</time>
      </trkpt>
      <trkpt lat="47.24797" lon="-1.63502">
        <ele>60</ele>
        <time>2012-01-10T09:35:25Z</time>
      </trkpt>
      <trkpt lat="47.24802" lon="-1.63503">
        <ele>60</ele>
        <time>2012-01-10T09:35:28Z</time>
      </trkpt>
      <trkpt lat="47.24805" lon="-1.63511">
        <ele>60</ele>
        <time>2012-01-10T09:35:33Z</time>
      </trkpt>
      <trkpt lat="47.24807" lon="-1.63517">
        <ele>60</ele>
        <time>2012-01-10T09:35:37Z</time>
      </trkpt>
      <trkpt lat="47.24811" lon="-1.63522">
        <ele>60</ele>
        <time>2012-01-10T09:35:41Z</time>
      </trkpt>
      <trkpt lat="47.24815" lon="-1.63527">
        <ele>60</ele>
        <time>2012-01-10T09:35:45Z</time>
      </trkpt>
      <trkpt lat="47.2482" lon="-1.6353">
        <ele>60</ele>
        <time>2012-01-10T09:35:49Z</time>
      </trkpt>
      <trkpt lat="47.24824" lon="-1.63536">
        <ele>60</ele>
        <time>2012-01-10T09:35:52Z</time>
      </trkpt>
      <trkpt lat="47.24828" lon="-1.63541">
        <ele>60</ele>
        <time>2012-01-10T09:35:57Z</time>
      </trkpt>
      <trkpt lat="47.24833" lon="-1.63543">
        <ele>61</ele>
        <time>2012-01-10T09:36:03Z</time>
      </trkpt>
      <trkpt lat="47.24838" lon="-1.63544">
        <ele>61</ele>
        <time>2012-01-10T09:36:06Z</time>
      </trkpt>
      <trkpt lat="47.24843" lon="-1.63545">
        <ele>61</ele>
        <time>2012-01-10T09:36:10Z</time>
      </trkpt>
      <trkpt lat="47.24848" lon="-1.63543">
        <ele>61</ele>
        <time>2012-01-10T09:36:13Z</time>
      </trkpt>
      <trkpt lat="47.24852" lon="-1.63546">
        <ele>61</ele>
        <time>2012-01-10T09:36:16Z</time>
      </trkpt>
      <trkpt lat="47.24855" lon="-1.63552">
        <ele>61</ele>
        <time>2012-01-10T09:36:18Z</time>
      </trkpt>
      <trkpt lat="47.24856" lon="-1.63558">
        <ele>61</ele>
        <time>2012-01-10T09:36:20Z</time>
      </trkpt>
      <trkpt lat="47.2486" lon="-1.63564">
        <ele>61</ele>
        <time>2012-01-10T09:36:22Z</time>
      </trkpt>
      <trkpt lat="47.24862" lon="-1.63571">
        <ele>61</ele>
        <time>2012-01-10T09:36:25Z</time>
      </trkpt>
      <trkpt lat="47.24865" lon="-1.63579">
        <ele>61</ele>
        <time>2012-01-10T09:36:28Z</time>
      </trkpt>
      <trkpt lat="47.24865" lon="-1.63587">
        <ele>61</ele>
        <time>2012-01-10T09:36:32Z</time>
      </trkpt>
      <trkpt lat="47.24867" lon="-1.63593">
        <ele>61</ele>
        <time>2012-01-10T09:36:35Z</time>
      </trkpt>
      <trkpt lat="47.24867" lon="-1.63601">
        <ele>61</ele>
        <time>2012-01-10T09:36:40Z</time>
      </trkpt>
      <trkpt lat="47.24873" lon="-1.63609">
        <ele>61</ele>
        <time>2012-01-10T09:36:45Z</time>
      </trkpt>
      <trkpt lat="47.24876" lon="-1.63617">
        <ele>61</ele>
        <time>2012-01-10T09:36:49Z</time>
      </trkpt>
      <trkpt lat="47.24878" lon="-1.63624">
        <ele>61</ele>
        <time>2012-01-10T09:36:53Z</time>
      </trkpt>
      <trkpt lat="47.24881" lon="-1.63631">
        <ele>61</ele>
        <time>2012-01-10T09:36:57Z</time>
      </trkpt>
      <trkpt lat="47.24882" lon="-1.63637">
        <ele>61</ele>
        <time>2012-01-10T09:37:01Z</time>
      </trkpt>
      <trkpt lat="47.24886" lon="-1.63644">
        <ele>61</ele>
        <time>2012-01-10T09:37:07Z</time>
      </trkpt>
      <trkpt lat="47.24889" lon="-1.6365">
        <ele>61</ele>
        <time>2012-01-10T09:37:11Z</time>
      </trkpt>
      <trkpt lat="47.24893" lon="-1.63656">
        <ele>61</ele>
        <time>2012-01-10T09:37:15Z</time>
      </trkpt>
      <trkpt lat="47.24896" lon="-1.63661">
        <ele>61</ele>
        <time>2012-01-10T09:37:18Z</time>
      </trkpt>
      <trkpt lat="47.24898" lon="-1.63669">
        <ele>60</ele>
        <time>2012-01-10T09:37:22Z</time>
      </trkpt>
      <trkpt lat="47.249" lon="-1.63677">
        <ele>60</ele>
        <time>2012-01-10T09:37:25Z</time>
      </trkpt>
      <trkpt lat="47.24903" lon="-1.63682">
        <ele>60</ele>
        <time>2012-01-10T09:37:28Z</time>
      </trkpt>
      <trkpt lat="47.24906" lon="-1.63688">
        <ele>60</ele>
        <time>2012-01-10T09:37:31Z</time>
      </trkpt>
      <trkpt lat="47.24908" lon="-1.63695">
        <ele>60</ele>
        <time>2012-01-10T09:37:34Z</time>
      </trkpt>
      <trkpt lat="47.24907" lon="-1.63702">
        <ele>59</ele>
        <time>2012-01-10T09:37:37Z</time>
      </trkpt>
      <trkpt lat="47.2491" lon="-1.63708">
        <ele>59</ele>
        <time>2012-01-10T09:37:40Z</time>
      </trkpt>
      <trkpt lat="47.24913" lon="-1.63714">
        <ele>59</ele>
        <time>2012-01-10T09:37:45Z</time>
      </trkpt>
      <trkpt lat="47.24917" lon="-1.6372">
        <ele>59</ele>
        <time>2012-01-10T09:37:49Z</time>
      </trkpt>
      <trkpt lat="47.24919" lon="-1.63727">
        <ele>59</ele>
        <time>2012-01-10T09:37:53Z</time>
      </trkpt>
      <trkpt lat="47.24921" lon="-1.63735">
        <ele>59</ele>
        <time>2012-01-10T09:37:56Z</time>
      </trkpt>
      <trkpt lat="47.24923" lon="-1.63742">
        <ele>59</ele>
        <time>2012-01-10T09:38:00Z</time>
      </trkpt>
      <trkpt lat="47.24925" lon="-1.6375">
        <ele>59</ele>
        <time>2012-01-10T09:38:04Z</time>
      </trkpt>
      <trkpt lat="47.24927" lon="-1.63756">
        <ele>58</ele>
        <time>2012-01-10T09:38:07Z</time>
      </trkpt>
      <trkpt lat="47.2493" lon="-1.63762">
        <ele>58</ele>
        <time>2012-01-10T09:38:10Z</time>
      </trkpt>
      <trkpt lat="47.24934" lon="-1.63767">
        <ele>57</ele>
        <time>2012-01-10T09:38:13Z</time>
      </trkpt>
      <trkpt lat="47.24936" lon="-1.63774">
        <ele>57</ele>
        <time>2012-01-10T09:38:16Z</time>
      </trkpt>
      <trkpt lat="47.2494" lon="-1.63779">
        <ele>57</ele>
        <time>2012-01-10T09:38:19Z</time>
      </trkpt>
      <trkpt lat="47.24941" lon="-1.63787">
        <ele>57</ele>
        <time>2012-01-10T09:38:23Z</time>
      </trkpt>
      <trkpt lat="47.24944" lon="-1.63794">
        <ele>57</ele>
        <time>2012-01-10T09:38:27Z</time>
      </trkpt>
      <trkpt lat="47.24948" lon="-1.63801">
        <ele>56</ele>
        <time>2012-01-10T09:38:29Z</time>
      </trkpt>
      <trkpt lat="47.24951" lon="-1.63808">
        <ele>56</ele>
        <time>2012-01-10T09:38:32Z</time>
      </trkpt>
      <trkpt lat="47.24954" lon="-1.63815">
        <ele>56</ele>
        <time>2012-01-10T09:38:35Z</time>
      </trkpt>
      <trkpt lat="47.24957" lon="-1.63824">
        <ele>56</ele>
        <time>2012-01-10T09:38:39Z</time>
      </trkpt>
      <trkpt lat="47.2496" lon="-1.6383">
        <ele>56</ele>
        <time>2012-01-10T09:38:42Z</time>
      </trkpt>
      <trkpt lat="47.24962" lon="-1.63838">
        <ele>55</ele>
        <time>2012-01-10T09:38:45Z</time>
      </trkpt>
      <trkpt lat="47.24966" lon="-1.63843">
        <ele>55</ele>
        <time>2012-01-10T09:38:48Z</time>
      </trkpt>
      <trkpt lat="47.24969" lon="-1.63848">
        <ele>55</ele>
        <time>2012-01-10T09:38:51Z</time>
      </trkpt>
      <trkpt lat="47.24971" lon="-1.63854">
        <ele>55</ele>
        <time>2012-01-10T09:38:54Z</time>
      </trkpt>
      <trkpt lat="47.24973" lon="-1.6386">
        <ele>55</ele>
        <time>2012-01-10T09:38:57Z</time>
      </trkpt>
      <trkpt lat="47.24976" lon="-1.63867">
        <ele>55</ele>
        <time>2012-01-10T09:39:00Z</time>
      </trkpt>
      <trkpt lat="47.24977" lon="-1.63874">
        <ele>55</ele>
        <time>2012-01-10T09:39:04Z</time>
      </trkpt>
      <trkpt lat="47.24979" lon="-1.63881">
        <ele>55</ele>
        <time>2012-01-10T09:39:07Z</time>
      </trkpt>
      <trkpt lat="47.24982" lon="-1.63888">
        <ele>55</ele>
        <time>2012-01-10T09:39:11Z</time>
      </trkpt>
      <trkpt lat="47.24984" lon="-1.63895">
        <ele>55</ele>
        <time>2012-01-10T09:39:15Z</time>
      </trkpt>
      <trkpt lat="47.24985" lon="-1.63903">
        <ele>56</ele>
        <time>2012-01-10T09:39:19Z</time>
      </trkpt>
      <trkpt lat="47.24988" lon="-1.63909">
        <ele>56</ele>
        <time>2012-01-10T09:39:22Z</time>
      </trkpt>
      <trkpt lat="47.2499" lon="-1.63916">
        <ele>56</ele>
        <time>2012-01-10T09:39:26Z</time>
      </trkpt>
      <trkpt lat="47.24991" lon="-1.63922">
        <ele>56</ele>
        <time>2012-01-10T09:39:31Z</time>
      </trkpt>
      <trkpt lat="47.24994" lon="-1.6393">
        <ele>55</ele>
        <time>2012-01-10T09:39:36Z</time>
      </trkpt>
      <trkpt lat="47.24999" lon="-1.63934">
        <ele>55</ele>
        <time>2012-01-10T09:39:40Z</time>
      </trkpt>
      <trkpt lat="47.25002" lon="-1.63939">
        <ele>56</ele>
        <time>2012-01-10T09:39:44Z</time>
      </trkpt>
      <trkpt lat="47.25007" lon="-1.63942">
        <ele>56</ele>
        <time>2012-01-10T09:39:49Z</time>
      </trkpt>
      <trkpt lat="47.25012" lon="-1.63945">
        <ele>56</ele>
        <time>2012-01-10T09:39:52Z</time>
      </trkpt>
      <trkpt lat="47.25018" lon="-1.63942">
        <ele>56</ele>
        <time>2012-01-10T09:39:56Z</time>
      </trkpt>
      <trkpt lat="47.25022" lon="-1.63939">
        <ele>56</ele>
        <time>2012-01-10T09:39:59Z</time>
      </trkpt>
      <trkpt lat="47.25027" lon="-1.63934">
        <ele>56</ele>
        <time>2012-01-10T09:40:02Z</time>
      </trkpt>
      <trkpt lat="47.25031" lon="-1.6393">
        <ele>56</ele>
        <time>2012-01-10T09:40:05Z</time>
      </trkpt>
      <trkpt lat="47.25035" lon="-1.63925">
        <ele>56</ele>
        <time>2012-01-10T09:40:09Z</time>
      </trkpt>
      <trkpt lat="47.25039" lon="-1.6392">
        <ele>56</ele>
        <time>2012-01-10T09:40:12Z</time>
      </trkpt>
      <trkpt lat="47.25044" lon="-1.63917">
        <ele>56</ele>
        <time>2012-01-10T09:40:15Z</time>
      </trkpt>
      <trkpt lat="47.25049" lon="-1.63912">
        <ele>56</ele>
        <time>2012-01-10T09:40:21Z</time>
      </trkpt>
      <trkpt lat="47.25053" lon="-1.63908">
        <ele>56</ele>
        <time>2012-01-10T09:40:24Z</time>
      </trkpt>
      <trkpt lat="47.25058" lon="-1.63905">
        <ele>56</ele>
        <time>2012-01-10T09:40:27Z</time>
      </trkpt>
      <trkpt lat="47.25062" lon="-1.63903">
        <ele>56</ele>
        <time>2012-01-10T09:40:30Z</time>
      </trkpt>
      <trkpt lat="47.25067" lon="-1.63899">
        <ele>56</ele>
        <time>2012-01-10T09:40:33Z</time>
      </trkpt>
      <trkpt lat="47.25071" lon="-1.63895">
        <ele>56</ele>
        <time>2012-01-10T09:40:36Z</time>
      </trkpt>
      <trkpt lat="47.25076" lon="-1.63889">
        <ele>56</ele>
        <time>2012-01-10T09:40:41Z</time>
      </trkpt>
      <trkpt lat="47.25081" lon="-1.63885">
        <ele>57</ele>
        <time>2012-01-10T09:40:46Z</time>
      </trkpt>
      <trkpt lat="47.25084" lon="-1.63881">
        <ele>56</ele>
        <time>2012-01-10T09:40:49Z</time>
      </trkpt>
      <trkpt lat="47.25088" lon="-1.63876">
        <ele>56</ele>
        <time>2012-01-10T09:40:52Z</time>
      </trkpt>
      <trkpt lat="47.25092" lon="-1.6387">
        <ele>56</ele>
        <time>2012-01-10T09:40:56Z</time>
      </trkpt>
      <trkpt lat="47.25096" lon="-1.63866">
        <ele>56</ele>
        <time>2012-01-10T09:40:59Z</time>
      </trkpt>
      <trkpt lat="47.251" lon="-1.63861">
        <ele>56</ele>
        <time>2012-01-10T09:41:02Z</time>
      </trkpt>
      <trkpt lat="47.25104" lon="-1.63856">
        <ele>56</ele>
        <time>2012-01-10T09:41:06Z</time>
      </trkpt>
      <trkpt lat="47.25108" lon="-1.6385">
        <ele>56</ele>
        <time>2012-01-10T09:41:10Z</time>
      </trkpt>
      <trkpt lat="47.2511" lon="-1.63842">
        <ele>56</ele>
        <time>2012-01-10T09:41:14Z</time>
      </trkpt>
      <trkpt lat="47.25112" lon="-1.63835">
        <ele>56</ele>
        <time>2012-01-10T09:41:17Z</time>
      </trkpt>
      <trkpt lat="47.25114" lon="-1.63827">
        <ele>57</ele>
        <time>2012-01-10T09:41:20Z</time>
      </trkpt>
      <trkpt lat="47.25118" lon="-1.63822">
        <ele>57</ele>
        <time>2012-01-10T09:41:23Z</time>
      </trkpt>
      <trkpt lat="47.25123" lon="-1.63818">
        <ele>57</ele>
        <time>2012-01-10T09:41:28Z</time>
      </trkpt>
      <trkpt lat="47.25127" lon="-1.63812">
        <ele>57</ele>
        <time>2012-01-10T09:41:32Z</time>
      </trkpt>
      <trkpt lat="47.25132" lon="-1.63808">
        <ele>57</ele>
        <time>2012-01-10T09:41:36Z</time>
      </trkpt>
      <trkpt lat="47.25136" lon="-1.63804">
        <ele>57</ele>
        <time>2012-01-10T09:41:39Z</time>
      </trkpt>
      <trkpt lat="47.25141" lon="-1.63802">
        <ele>57</ele>
        <time>2012-01-10T09:41:41Z</time>
      </trkpt>
      <trkpt lat="47.25146" lon="-1.638">
        <ele>57</ele>
        <time>2012-01-10T09:41:44Z</time>
      </trkpt>
      <trkpt lat="47.2515" lon="-1.63797">
        <ele>57</ele>
        <time>2012-01-10T09:41:47Z</time>
      </trkpt>
      <trkpt lat="47.25156" lon="-1.63794">
        <ele>57</ele>
        <time>2012-01-10T09:41:51Z</time>
      </trkpt>
      <trkpt lat="47.25162" lon="-1.63793">
        <ele>57</ele>
        <time>2012-01-10T09:41:54Z</time>
      </trkpt>
      <trkpt lat="47.25162" lon="-1.63793">
        <ele>57</ele>
        <time>2012-01-10T09:41:54Z</time>
      </trkpt>
      <trkpt lat="47.25162" lon="-1.63793">
        <ele>57</ele>
        <time>2012-01-10T09:41:55Z</time>
      </trkpt>
      <trkpt lat="47.25167" lon="-1.63791">
        <ele>57</ele>
        <time>2012-01-10T09:41:58Z</time>
      </trkpt>
      <trkpt lat="47.25173" lon="-1.6379">
        <ele>57</ele>
        <time>2012-01-10T09:42:02Z</time>
      </trkpt>
      <trkpt lat="47.25178" lon="-1.6379">
        <ele>57</ele>
        <time>2012-01-10T09:42:05Z</time>
      </trkpt>
      <trkpt lat="47.25183" lon="-1.63793">
        <ele>57</ele>
        <time>2012-01-10T09:42:09Z</time>
      </trkpt>
      <trkpt lat="47.25189" lon="-1.63795">
        <ele>57</ele>
        <time>2012-01-10T09:42:13Z</time>
      </trkpt>
      <trkpt lat="47.25193" lon="-1.63799">
        <ele>57</ele>
        <time>2012-01-10T09:42:17Z</time>
      </trkpt>
      <trkpt lat="47.25199" lon="-1.63802">
        <ele>57</ele>
        <time>2012-01-10T09:42:20Z</time>
      </trkpt>
      <trkpt lat="47.25204" lon="-1.63806">
        <ele>57</ele>
        <time>2012-01-10T09:42:24Z</time>
      </trkpt>
      <trkpt lat="47.2521" lon="-1.6381">
        <ele>58</ele>
        <time>2012-01-10T09:42:29Z</time>
      </trkpt>
      <trkpt lat="47.25214" lon="-1.63813">
        <ele>58</ele>
        <time>2012-01-10T09:42:32Z</time>
      </trkpt>
      <trkpt lat="47.25219" lon="-1.63816">
        <ele>58</ele>
        <time>2012-01-10T09:42:36Z</time>
      </trkpt>
      <trkpt lat="47.25223" lon="-1.63813">
        <ele>58</ele>
        <time>2012-01-10T09:42:40Z</time>
      </trkpt>
      <trkpt lat="47.25228" lon="-1.63811">
        <ele>58</ele>
        <time>2012-01-10T09:42:44Z</time>
      </trkpt>
      <trkpt lat="47.25234" lon="-1.6381">
        <ele>58</ele>
        <time>2012-01-10T09:42:47Z</time>
      </trkpt>
      <trkpt lat="47.25238" lon="-1.6381">
        <ele>58</ele>
        <time>2012-01-10T09:42:49Z</time>
      </trkpt>
      <trkpt lat="47.25243" lon="-1.6381">
        <ele>58</ele>
        <time>2012-01-10T09:42:51Z</time>
      </trkpt>
      <trkpt lat="47.25248" lon="-1.63809">
        <ele>58</ele>
        <time>2012-01-10T09:42:54Z</time>
      </trkpt>
      <trkpt lat="47.25254" lon="-1.63808">
        <ele>59</ele>
        <time>2012-01-10T09:42:57Z</time>
      </trkpt>
      <trkpt lat="47.25258" lon="-1.63807">
        <ele>59</ele>
        <time>2012-01-10T09:43:00Z</time>
      </trkpt>
      <trkpt lat="47.25264" lon="-1.63807">
        <ele>59</ele>
        <time>2012-01-10T09:43:06Z</time>
      </trkpt>
      <trkpt lat="47.25264" lon="-1.63807">
        <ele>59</ele>
        <time>2012-01-10T09:43:06Z</time>
      </trkpt>
      <trkpt lat="47.25264" lon="-1.63807">
        <ele>59</ele>
        <time>2012-01-10T09:43:08Z</time>
      </trkpt>
      <trkpt lat="47.25267" lon="-1.63802">
        <ele>59</ele>
        <time>2012-01-10T09:43:10Z</time>
      </trkpt>
      <trkpt lat="47.25272" lon="-1.63798">
        <ele>59</ele>
        <time>2012-01-10T09:43:13Z</time>
      </trkpt>
      <trkpt lat="47.25276" lon="-1.63795">
        <ele>59</ele>
        <time>2012-01-10T09:43:16Z</time>
      </trkpt>
      <trkpt lat="47.25281" lon="-1.63792">
        <ele>59</ele>
        <time>2012-01-10T09:43:20Z</time>
      </trkpt>
      <trkpt lat="47.25285" lon="-1.63788">
        <ele>60</ele>
        <time>2012-01-10T09:43:23Z</time>
      </trkpt>
      <trkpt lat="47.25288" lon="-1.63783">
        <ele>60</ele>
        <time>2012-01-10T09:43:27Z</time>
      </trkpt>
      <trkpt lat="47.25292" lon="-1.63777">
        <ele>60</ele>
        <time>2012-01-10T09:43:30Z</time>
      </trkpt>
      <trkpt lat="47.25292" lon="-1.63769">
        <ele>60</ele>
        <time>2012-01-10T09:43:34Z</time>
      </trkpt>
      <trkpt lat="47.25291" lon="-1.63762">
        <ele>60</ele>
        <time>2012-01-10T09:43:37Z</time>
      </trkpt>
      <trkpt lat="47.25291" lon="-1.63755">
        <ele>60</ele>
        <time>2012-01-10T09:43:40Z</time>
      </trkpt>
      <trkpt lat="47.25294" lon="-1.6375">
        <ele>61</ele>
        <time>2012-01-10T09:43:43Z</time>
      </trkpt>
      <trkpt lat="47.25295" lon="-1.63742">
        <ele>61</ele>
        <time>2012-01-10T09:43:47Z</time>
      </trkpt>
      <trkpt lat="47.25295" lon="-1.63742">
        <ele>61</ele>
        <time>2012-01-10T09:43:47Z</time>
      </trkpt>
      <trkpt lat="47.25295" lon="-1.63742">
        <ele>61</ele>
        <time>2012-01-10T09:43:48Z</time>
      </trkpt>
      <trkpt lat="47.25296" lon="-1.63733">
        <ele>61</ele>
        <time>2012-01-10T09:43:52Z</time>
      </trkpt>
      <trkpt lat="47.25298" lon="-1.63724">
        <ele>61</ele>
        <time>2012-01-10T09:43:56Z</time>
      </trkpt>
      <trkpt lat="47.25299" lon="-1.63714">
        <ele>61</ele>
        <time>2012-01-10T09:44:00Z</time>
      </trkpt>
      <trkpt lat="47.253" lon="-1.63705">
        <ele>61</ele>
        <time>2012-01-10T09:44:03Z</time>
      </trkpt>
      <trkpt lat="47.25301" lon="-1.63698">
        <ele>61</ele>
        <time>2012-01-10T09:44:06Z</time>
      </trkpt>
      <trkpt lat="47.25302" lon="-1.6369">
        <ele>61</ele>
        <time>2012-01-10T09:44:10Z</time>
      </trkpt>
      <trkpt lat="47.25302" lon="-1.63682">
        <ele>62</ele>
        <time>2012-01-10T09:44:13Z</time>
      </trkpt>
      <trkpt lat="47.25303" lon="-1.63674">
        <ele>62</ele>
        <time>2012-01-10T09:44:17Z</time>
      </trkpt>
      <trkpt lat="47.25304" lon="-1.63666">
        <ele>62</ele>
        <time>2012-01-10T09:44:21Z</time>
      </trkpt>
      <trkpt lat="47.25304" lon="-1.63658">
        <ele>62</ele>
        <time>2012-01-10T09:44:25Z</time>
      </trkpt>
      <trkpt lat="47.25304" lon="-1.63648">
        <ele>62</ele>
        <time>2012-01-10T09:44:28Z</time>
      </trkpt>
      <trkpt lat="47.25305" lon="-1.63641">
        <ele>62</ele>
        <time>2012-01-10T09:44:32Z</time>
      </trkpt>
      <trkpt lat="47.25306" lon="-1.63634">
        <ele>62</ele>
        <time>2012-01-10T09:44:38Z</time>
      </trkpt>
      <trkpt lat="47.25303" lon="-1.63626">
        <ele>62</ele>
        <time>2012-01-10T09:44:42Z</time>
      </trkpt>
      <trkpt lat="47.25299" lon="-1.63622">
        <ele>62</ele>
        <time>2012-01-10T09:44:45Z</time>
      </trkpt>
      <trkpt lat="47.25295" lon="-1.63618">
        <ele>62</ele>
        <time>2012-01-10T09:44:48Z</time>
      </trkpt>
      <trkpt lat="47.25291" lon="-1.63615">
        <ele>62</ele>
        <time>2012-01-10T09:44:51Z</time>
      </trkpt>
      <trkpt lat="47.25286" lon="-1.63613">
        <ele>62</ele>
        <time>2012-01-10T09:44:54Z</time>
      </trkpt>
      <trkpt lat="47.25281" lon="-1.63608">
        <ele>62</ele>
        <time>2012-01-10T09:44:58Z</time>
      </trkpt>
      <trkpt lat="47.25277" lon="-1.63604">
        <ele>61</ele>
        <time>2012-01-10T09:45:00Z</time>
      </trkpt>
      <trkpt lat="47.25272" lon="-1.636">
        <ele>61</ele>
        <time>2012-01-10T09:45:04Z</time>
      </trkpt>
      <trkpt lat="47.25266" lon="-1.63596">
        <ele>61</ele>
        <time>2012-01-10T09:45:08Z</time>
      </trkpt>
      <trkpt lat="47.25263" lon="-1.63592">
        <ele>60</ele>
        <time>2012-01-10T09:45:11Z</time>
      </trkpt>
      <trkpt lat="47.25258" lon="-1.63587">
        <ele>60</ele>
        <time>2012-01-10T09:45:15Z</time>
      </trkpt>
      <trkpt lat="47.25254" lon="-1.63583">
        <ele>59</ele>
        <time>2012-01-10T09:45:18Z</time>
      </trkpt>
      <trkpt lat="47.25251" lon="-1.63576">
        <ele>60</ele>
        <time>2012-01-10T09:45:22Z</time>
      </trkpt>
      <trkpt lat="47.25249" lon="-1.6357">
        <ele>59</ele>
        <time>2012-01-10T09:45:26Z</time>
      </trkpt>
      <trkpt lat="47.25243" lon="-1.63565">
        <ele>59</ele>
        <time>2012-01-10T09:45:29Z</time>
      </trkpt>
      <trkpt lat="47.25238" lon="-1.63561">
        <ele>59</ele>
        <time>2012-01-10T09:45:32Z</time>
      </trkpt>
      <trkpt lat="47.25235" lon="-1.63556">
        <ele>59</ele>
        <time>2012-01-10T09:45:36Z</time>
      </trkpt>
      <trkpt lat="47.25232" lon="-1.6355">
        <ele>59</ele>
        <time>2012-01-10T09:45:39Z</time>
      </trkpt>
      <trkpt lat="47.25228" lon="-1.63544">
        <ele>59</ele>
        <time>2012-01-10T09:45:44Z</time>
      </trkpt>
      <trkpt lat="47.25222" lon="-1.63543">
        <ele>59</ele>
        <time>2012-01-10T09:45:47Z</time>
      </trkpt>
      <trkpt lat="47.25219" lon="-1.63538">
        <ele>59</ele>
        <time>2012-01-10T09:45:50Z</time>
      </trkpt>
      <trkpt lat="47.25216" lon="-1.63532">
        <ele>59</ele>
        <time>2012-01-10T09:45:54Z</time>
      </trkpt>
      <trkpt lat="47.25212" lon="-1.63526">
        <ele>59</ele>
        <time>2012-01-10T09:45:58Z</time>
      </trkpt>
      <trkpt lat="47.25208" lon="-1.6352">
        <ele>59</ele>
        <time>2012-01-10T09:46:02Z</time>
      </trkpt>
      <trkpt lat="47.25203" lon="-1.63516">
        <ele>59</ele>
        <time>2012-01-10T09:46:06Z</time>
      </trkpt>
      <trkpt lat="47.25198" lon="-1.63512">
        <ele>59</ele>
        <time>2012-01-10T09:46:11Z</time>
      </trkpt>
      <trkpt lat="47.25192" lon="-1.63513">
        <ele>59</ele>
        <time>2012-01-10T09:46:14Z</time>
      </trkpt>
      <trkpt lat="47.25188" lon="-1.63518">
        <ele>59</ele>
        <time>2012-01-10T09:46:19Z</time>
      </trkpt>
      <trkpt lat="47.25183" lon="-1.6352">
        <ele>59</ele>
        <time>2012-01-10T09:46:22Z</time>
      </trkpt>
      <trkpt lat="47.25178" lon="-1.63523">
        <ele>59</ele>
        <time>2012-01-10T09:46:24Z</time>
      </trkpt>
      <trkpt lat="47.25174" lon="-1.63526">
        <ele>59</ele>
        <time>2012-01-10T09:46:28Z</time>
      </trkpt>
      <trkpt lat="47.2517" lon="-1.63529">
        <ele>59</ele>
        <time>2012-01-10T09:46:32Z</time>
      </trkpt>
      <trkpt lat="47.25164" lon="-1.63532">
        <ele>60</ele>
        <time>2012-01-10T09:46:37Z</time>
      </trkpt>
      <trkpt lat="47.2516" lon="-1.63528">
        <ele>60</ele>
        <time>2012-01-10T09:46:41Z</time>
      </trkpt>
      <trkpt lat="47.25155" lon="-1.63523">
        <ele>60</ele>
        <time>2012-01-10T09:46:45Z</time>
      </trkpt>
      <trkpt lat="47.2515" lon="-1.6352">
        <ele>60</ele>
        <time>2012-01-10T09:46:48Z</time>
      </trkpt>
      <trkpt lat="47.25147" lon="-1.63512">
        <ele>60</ele>
        <time>2012-01-10T09:46:52Z</time>
      </trkpt>
      <trkpt lat="47.25141" lon="-1.63508">
        <ele>60</ele>
        <time>2012-01-10T09:46:56Z</time>
      </trkpt>
      <trkpt lat="47.25138" lon="-1.63502">
        <ele>60</ele>
        <time>2012-01-10T09:46:58Z</time>
      </trkpt>
      <trkpt lat="47.25136" lon="-1.63496">
        <ele>60</ele>
        <time>2012-01-10T09:47:01Z</time>
      </trkpt>
      <trkpt lat="47.25132" lon="-1.63491">
        <ele>60</ele>
        <time>2012-01-10T09:47:04Z</time>
      </trkpt>
      <trkpt lat="47.25127" lon="-1.63486">
        <ele>60</ele>
        <time>2012-01-10T09:47:08Z</time>
      </trkpt>
      <trkpt lat="47.25126" lon="-1.63478">
        <ele>60</ele>
        <time>2012-01-10T09:47:11Z</time>
      </trkpt>
      <trkpt lat="47.25123" lon="-1.63473">
        <ele>60</ele>
        <time>2012-01-10T09:47:14Z</time>
      </trkpt>
      <trkpt lat="47.2512" lon="-1.63467">
        <ele>60</ele>
        <time>2012-01-10T09:47:17Z</time>
      </trkpt>
      <trkpt lat="47.25114" lon="-1.63463">
        <ele>60</ele>
        <time>2012-01-10T09:47:21Z</time>
      </trkpt>
      <trkpt lat="47.2511" lon="-1.63464">
        <ele>60</ele>
        <time>2012-01-10T09:47:30Z</time>
      </trkpt>
      <trkpt lat="47.25105" lon="-1.63467">
        <ele>60</ele>
        <time>2012-01-10T09:47:35Z</time>
      </trkpt>
      <trkpt lat="47.251" lon="-1.63469">
        <ele>60</ele>
        <time>2012-01-10T09:47:38Z</time>
      </trkpt>
      <trkpt lat="47.25094" lon="-1.63469">
        <ele>60</ele>
        <time>2012-01-10T09:47:41Z</time>
      </trkpt>
      <trkpt lat="47.25088" lon="-1.63468">
        <ele>60</ele>
        <time>2012-01-10T09:47:44Z</time>
      </trkpt>
      <trkpt lat="47.25083" lon="-1.63467">
        <ele>61</ele>
        <time>2012-01-10T09:47:48Z</time>
      </trkpt>
      <trkpt lat="47.25078" lon="-1.63468">
        <ele>61</ele>
        <time>2012-01-10T09:47:50Z</time>
      </trkpt>
      <trkpt lat="47.25072" lon="-1.6347">
        <ele>61</ele>
        <time>2012-01-10T09:47:53Z</time>
      </trkpt>
      <trkpt lat="47.25067" lon="-1.63473">
        <ele>61</ele>
        <time>2012-01-10T09:47:57Z</time>
      </trkpt>
      <trkpt lat="47.2506" lon="-1.63473">
        <ele>61</ele>
        <time>2012-01-10T09:48:01Z</time>
      </trkpt>
      <trkpt lat="47.25053" lon="-1.63472">
        <ele>61</ele>
        <time>2012-01-10T09:48:05Z</time>
      </trkpt>
      <trkpt lat="47.25048" lon="-1.6347">
        <ele>61</ele>
        <time>2012-01-10T09:48:08Z</time>
      </trkpt>
      <trkpt lat="47.25044" lon="-1.63468">
        <ele>61</ele>
        <time>2012-01-10T09:48:11Z</time>
      </trkpt>
      <trkpt lat="47.25038" lon="-1.63465">
        <ele>61</ele>
        <time>2012-01-10T09:48:15Z</time>
      </trkpt>
      <trkpt lat="47.25034" lon="-1.63464">
        <ele>61</ele>
        <time>2012-01-10T09:48:18Z</time>
      </trkpt>
      <trkpt lat="47.25029" lon="-1.63463">
        <ele>61</ele>
        <time>2012-01-10T09:48:21Z</time>
      </trkpt>
      <trkpt lat="47.25023" lon="-1.63461">
        <ele>61</ele>
        <time>2012-01-10T09:48:25Z</time>
      </trkpt>
      <trkpt lat="47.2502" lon="-1.63456">
        <ele>61</ele>
        <time>2012-01-10T09:48:29Z</time>
      </trkpt>
      <trkpt lat="47.25015" lon="-1.63453">
        <ele>61</ele>
        <time>2012-01-10T09:48:33Z</time>
      </trkpt>
      <trkpt lat="47.25013" lon="-1.63447">
        <ele>61</ele>
        <time>2012-01-10T09:48:40Z</time>
      </trkpt>
      <trkpt lat="47.25012" lon="-1.63439">
        <ele>61</ele>
        <time>2012-01-10T09:48:45Z</time>
      </trkpt>
      <trkpt lat="47.25007" lon="-1.63436">
        <ele>61</ele>
        <time>2012-01-10T09:48:49Z</time>
      </trkpt>
      <trkpt lat="47.25007" lon="-1.63436">
        <ele>61</ele>
        <time>2012-01-10T09:48:49Z</time>
      </trkpt>
      <trkpt lat="47.25007" lon="-1.63436">
        <ele>61</ele>
        <time>2012-01-10T09:48:50Z</time>
      </trkpt>
      <trkpt lat="47.25002" lon="-1.63434">
        <ele>61</ele>
        <time>2012-01-10T09:48:54Z</time>
      </trkpt>
    </trkseg>
  </trk>
</gpx>